<?xml version="1.0" encoding="UTF-8" standalone="no" ?>
<gpx xmlns="http://www.topografix.com/GPX/1/1" xmlns:xsi="http://www.w3.org/2001/XMLSchema-instance" xsi:schemaLocation="http://www.topografix.com/GPX/1/1 http://www.topografix.com/GPX/1/1/gpx.xsd" version="1.1" creator="VisuGPX - https://www.visugpx.com">
  <metadata>
    <name>2019-06-03 11:54:42</name>
    <desc><![CDATA[

]]></desc>
  </metadata>
  <trk>
    <name><![CDATA[2019-06-03 11:54:42]]></name>
    <trkseg>
      <trkpt lat="42.04692" lon="-8.64599">
        <ele>30.9</ele>
        <time>2019-06-03T05:47:03Z</time>
      </trkpt>
      <trkpt lat="42.04692" lon="-8.64599">
        <ele>30.9</ele>
        <time>2019-06-03T05:47:04Z</time>
      </trkpt>
      <trkpt lat="42.04697" lon="-8.64599">
        <ele>30.9</ele>
        <time>2019-06-03T05:47:22Z</time>
      </trkpt>
      <trkpt lat="42.04697" lon="-8.64595">
        <ele>31.86</ele>
        <time>2019-06-03T05:47:23Z</time>
      </trkpt>
      <trkpt lat="42.04692" lon="-8.64587">
        <ele>31.86</ele>
        <time>2019-06-03T05:47:30Z</time>
      </trkpt>
      <trkpt lat="42.04684" lon="-8.64569">
        <ele>33.3</ele>
        <time>2019-06-03T05:47:46Z</time>
      </trkpt>
      <trkpt lat="42.04682" lon="-8.64553">
        <ele>35.23</ele>
        <time>2019-06-03T05:47:59Z</time>
      </trkpt>
      <trkpt lat="42.04684" lon="-8.64542">
        <ele>36.67</ele>
        <time>2019-06-03T05:48:14Z</time>
      </trkpt>
      <trkpt lat="42.04678" lon="-8.6453">
        <ele>38.59</ele>
        <time>2019-06-03T05:48:30Z</time>
      </trkpt>
      <trkpt lat="42.04678" lon="-8.64508">
        <ele>40.03</ele>
        <time>2019-06-03T05:48:46Z</time>
      </trkpt>
      <trkpt lat="42.04692" lon="-8.64495">
        <ele>41.47</ele>
        <time>2019-06-03T05:49:02Z</time>
      </trkpt>
      <trkpt lat="42.04697" lon="-8.64481">
        <ele>42.92</ele>
        <time>2019-06-03T05:49:15Z</time>
      </trkpt>
      <trkpt lat="42.04691" lon="-8.64466">
        <ele>43.88</ele>
        <time>2019-06-03T05:49:28Z</time>
      </trkpt>
      <trkpt lat="42.0469" lon="-8.64459">
        <ele>44.84</ele>
        <time>2019-06-03T05:49:34Z</time>
      </trkpt>
      <trkpt lat="42.04679" lon="-8.64447">
        <ele>45.8</ele>
        <time>2019-06-03T05:49:48Z</time>
      </trkpt>
      <trkpt lat="42.04685" lon="-8.64434">
        <ele>46.28</ele>
        <time>2019-06-03T05:50:05Z</time>
      </trkpt>
      <trkpt lat="42.04686" lon="-8.64429">
        <ele>46.28</ele>
        <time>2019-06-03T05:50:10Z</time>
      </trkpt>
      <trkpt lat="42.04686" lon="-8.64409">
        <ele>46.76</ele>
        <time>2019-06-03T05:50:24Z</time>
      </trkpt>
      <trkpt lat="42.047" lon="-8.64388">
        <ele>46.28</ele>
        <time>2019-06-03T05:50:40Z</time>
      </trkpt>
      <trkpt lat="42.04704" lon="-8.64385">
        <ele>45.8</ele>
        <time>2019-06-03T05:50:44Z</time>
      </trkpt>
      <trkpt lat="42.04714" lon="-8.64374">
        <ele>44.84</ele>
        <time>2019-06-03T05:51:00Z</time>
      </trkpt>
      <trkpt lat="42.04723" lon="-8.64368">
        <ele>43.88</ele>
        <time>2019-06-03T05:51:15Z</time>
      </trkpt>
      <trkpt lat="42.04722" lon="-8.64366">
        <ele>40.99</ele>
        <time>2019-06-03T05:51:27Z</time>
      </trkpt>
      <trkpt lat="42.04729" lon="-8.64346">
        <ele>38.59</ele>
        <time>2019-06-03T05:51:43Z</time>
      </trkpt>
      <trkpt lat="42.04745" lon="-8.64334">
        <ele>36.19</ele>
        <time>2019-06-03T05:51:56Z</time>
      </trkpt>
      <trkpt lat="42.04751" lon="-8.64327">
        <ele>34.74</ele>
        <time>2019-06-03T05:52:05Z</time>
      </trkpt>
      <trkpt lat="42.04751" lon="-8.6431">
        <ele>31.38</ele>
        <time>2019-06-03T05:52:20Z</time>
      </trkpt>
      <trkpt lat="42.04747" lon="-8.64299">
        <ele>29.94</ele>
        <time>2019-06-03T05:52:34Z</time>
      </trkpt>
      <trkpt lat="42.04744" lon="-8.6429">
        <ele>28.5</ele>
        <time>2019-06-03T05:52:45Z</time>
      </trkpt>
      <trkpt lat="42.04744" lon="-8.64288">
        <ele>28.02</ele>
        <time>2019-06-03T05:52:50Z</time>
      </trkpt>
      <trkpt lat="42.0474" lon="-8.64274">
        <ele>26.57</ele>
        <time>2019-06-03T05:53:02Z</time>
      </trkpt>
      <trkpt lat="42.04736" lon="-8.64251">
        <ele>24.17</ele>
        <time>2019-06-03T05:53:18Z</time>
      </trkpt>
      <trkpt lat="42.04733" lon="-8.64241">
        <ele>23.21</ele>
        <time>2019-06-03T05:53:31Z</time>
      </trkpt>
      <trkpt lat="42.04731" lon="-8.64227">
        <ele>21.29</ele>
        <time>2019-06-03T05:53:40Z</time>
      </trkpt>
      <trkpt lat="42.0473" lon="-8.64223">
        <ele>20.81</ele>
        <time>2019-06-03T05:53:43Z</time>
      </trkpt>
      <trkpt lat="42.04729" lon="-8.64209">
        <ele>19.84</ele>
        <time>2019-06-03T05:53:58Z</time>
      </trkpt>
      <trkpt lat="42.04732" lon="-8.64207">
        <ele>19.84</ele>
        <time>2019-06-03T05:54:02Z</time>
      </trkpt>
      <trkpt lat="42.04735" lon="-8.64205">
        <ele>19.36</ele>
        <time>2019-06-03T05:54:06Z</time>
      </trkpt>
      <trkpt lat="42.0474" lon="-8.64204">
        <ele>18.4</ele>
        <time>2019-06-03T05:54:11Z</time>
      </trkpt>
      <trkpt lat="42.04756" lon="-8.64188">
        <ele>16.48</ele>
        <time>2019-06-03T05:54:27Z</time>
      </trkpt>
      <trkpt lat="42.04763" lon="-8.64182">
        <ele>16.48</ele>
        <time>2019-06-03T05:54:38Z</time>
      </trkpt>
      <trkpt lat="42.04772" lon="-8.64172">
        <ele>14.08</ele>
        <time>2019-06-03T05:54:52Z</time>
      </trkpt>
      <trkpt lat="42.04784" lon="-8.64158">
        <ele>13.12</ele>
        <time>2019-06-03T05:55:05Z</time>
      </trkpt>
      <trkpt lat="42.04785" lon="-8.64158">
        <ele>13.12</ele>
        <time>2019-06-03T05:55:06Z</time>
      </trkpt>
      <trkpt lat="42.04791" lon="-8.6415">
        <ele>13.12</ele>
        <time>2019-06-03T05:55:20Z</time>
      </trkpt>
      <trkpt lat="42.04805" lon="-8.64136">
        <ele>13.6</ele>
        <time>2019-06-03T05:55:36Z</time>
      </trkpt>
      <trkpt lat="42.04815" lon="-8.64124">
        <ele>14.08</ele>
        <time>2019-06-03T05:55:51Z</time>
      </trkpt>
      <trkpt lat="42.0483" lon="-8.64116">
        <ele>14.08</ele>
        <time>2019-06-03T05:56:07Z</time>
      </trkpt>
      <trkpt lat="42.04848" lon="-8.64106">
        <ele>15.04</ele>
        <time>2019-06-03T05:56:27Z</time>
      </trkpt>
      <trkpt lat="42.04863" lon="-8.64091">
        <ele>16</ele>
        <time>2019-06-03T05:56:45Z</time>
      </trkpt>
      <trkpt lat="42.04884" lon="-8.64073">
        <ele>16.48</ele>
        <time>2019-06-03T05:57:01Z</time>
      </trkpt>
      <trkpt lat="42.04897" lon="-8.64064">
        <ele>17.44</ele>
        <time>2019-06-03T05:57:13Z</time>
      </trkpt>
      <trkpt lat="42.04913" lon="-8.64057">
        <ele>17.44</ele>
        <time>2019-06-03T05:57:27Z</time>
      </trkpt>
      <trkpt lat="42.04926" lon="-8.64054">
        <ele>17.92</ele>
        <time>2019-06-03T05:57:41Z</time>
      </trkpt>
      <trkpt lat="42.0493" lon="-8.64052">
        <ele>18.4</ele>
        <time>2019-06-03T05:57:45Z</time>
      </trkpt>
      <trkpt lat="42.04948" lon="-8.64045">
        <ele>18.88</ele>
        <time>2019-06-03T05:58:00Z</time>
      </trkpt>
      <trkpt lat="42.04965" lon="-8.64034">
        <ele>18.4</ele>
        <time>2019-06-03T05:58:16Z</time>
      </trkpt>
      <trkpt lat="42.0498" lon="-8.64028">
        <ele>18.88</ele>
        <time>2019-06-03T05:58:29Z</time>
      </trkpt>
      <trkpt lat="42.04993" lon="-8.6402">
        <ele>19.84</ele>
        <time>2019-06-03T05:58:42Z</time>
      </trkpt>
      <trkpt lat="42.05009" lon="-8.64016">
        <ele>19.36</ele>
        <time>2019-06-03T05:58:57Z</time>
      </trkpt>
      <trkpt lat="42.05022" lon="-8.64009">
        <ele>20.32</ele>
        <time>2019-06-03T05:59:13Z</time>
      </trkpt>
      <trkpt lat="42.05039" lon="-8.63999">
        <ele>19.36</ele>
        <time>2019-06-03T05:59:27Z</time>
      </trkpt>
      <trkpt lat="42.05061" lon="-8.63989">
        <ele>20.32</ele>
        <time>2019-06-03T05:59:42Z</time>
      </trkpt>
      <trkpt lat="42.05075" lon="-8.63985">
        <ele>20.32</ele>
        <time>2019-06-03T05:59:55Z</time>
      </trkpt>
      <trkpt lat="42.05084" lon="-8.63984">
        <ele>21.29</ele>
        <time>2019-06-03T06:00:05Z</time>
      </trkpt>
      <trkpt lat="42.05104" lon="-8.63969">
        <ele>20.32</ele>
        <time>2019-06-03T06:00:22Z</time>
      </trkpt>
      <trkpt lat="42.05107" lon="-8.63966">
        <ele>21.77</ele>
        <time>2019-06-03T06:00:25Z</time>
      </trkpt>
      <trkpt lat="42.05131" lon="-8.6396">
        <ele>20.81</ele>
        <time>2019-06-03T06:00:44Z</time>
      </trkpt>
      <trkpt lat="42.05148" lon="-8.63957">
        <ele>20.81</ele>
        <time>2019-06-03T06:00:57Z</time>
      </trkpt>
      <trkpt lat="42.05156" lon="-8.63956">
        <ele>20.32</ele>
        <time>2019-06-03T06:01:03Z</time>
      </trkpt>
      <trkpt lat="42.05162" lon="-8.63957">
        <ele>20.32</ele>
        <time>2019-06-03T06:01:08Z</time>
      </trkpt>
      <trkpt lat="42.05166" lon="-8.63956">
        <ele>20.81</ele>
        <time>2019-06-03T06:01:11Z</time>
      </trkpt>
      <trkpt lat="42.05173" lon="-8.63962">
        <ele>20.81</ele>
        <time>2019-06-03T06:01:18Z</time>
      </trkpt>
      <trkpt lat="42.05183" lon="-8.63968">
        <ele>20.81</ele>
        <time>2019-06-03T06:01:31Z</time>
      </trkpt>
      <trkpt lat="42.05197" lon="-8.63982">
        <ele>20.81</ele>
        <time>2019-06-03T06:01:44Z</time>
      </trkpt>
      <trkpt lat="42.05201" lon="-8.6399">
        <ele>20.81</ele>
        <time>2019-06-03T06:01:50Z</time>
      </trkpt>
      <trkpt lat="42.05209" lon="-8.64007">
        <ele>20.81</ele>
        <time>2019-06-03T06:02:03Z</time>
      </trkpt>
      <trkpt lat="42.05212" lon="-8.64017">
        <ele>20.32</ele>
        <time>2019-06-03T06:02:10Z</time>
      </trkpt>
      <trkpt lat="42.05215" lon="-8.64027">
        <ele>20.32</ele>
        <time>2019-06-03T06:02:22Z</time>
      </trkpt>
      <trkpt lat="42.05215" lon="-8.64028">
        <ele>20.32</ele>
        <time>2019-06-03T06:02:27Z</time>
      </trkpt>
      <trkpt lat="42.05215" lon="-8.64035">
        <ele>20.81</ele>
        <time>2019-06-03T06:02:31Z</time>
      </trkpt>
      <trkpt lat="42.05217" lon="-8.64042">
        <ele>20.81</ele>
        <time>2019-06-03T06:02:35Z</time>
      </trkpt>
      <trkpt lat="42.05233" lon="-8.64037">
        <ele>20.32</ele>
        <time>2019-06-03T06:02:51Z</time>
      </trkpt>
      <trkpt lat="42.05252" lon="-8.64033">
        <ele>19.84</ele>
        <time>2019-06-03T06:03:07Z</time>
      </trkpt>
      <trkpt lat="42.0526" lon="-8.6403">
        <ele>19.36</ele>
        <time>2019-06-03T06:03:15Z</time>
      </trkpt>
      <trkpt lat="42.0528" lon="-8.64026">
        <ele>19.84</ele>
        <time>2019-06-03T06:03:32Z</time>
      </trkpt>
      <trkpt lat="42.05293" lon="-8.64022">
        <ele>19.84</ele>
        <time>2019-06-03T06:03:45Z</time>
      </trkpt>
      <trkpt lat="42.05304" lon="-8.64015">
        <ele>19.36</ele>
        <time>2019-06-03T06:03:56Z</time>
      </trkpt>
      <trkpt lat="42.05321" lon="-8.64009">
        <ele>19.84</ele>
        <time>2019-06-03T06:04:07Z</time>
      </trkpt>
      <trkpt lat="42.05323" lon="-8.64005">
        <ele>19.84</ele>
        <time>2019-06-03T06:04:10Z</time>
      </trkpt>
      <trkpt lat="42.05337" lon="-8.63985">
        <ele>19.36</ele>
        <time>2019-06-03T06:04:26Z</time>
      </trkpt>
      <trkpt lat="42.05347" lon="-8.63969">
        <ele>19.36</ele>
        <time>2019-06-03T06:04:39Z</time>
      </trkpt>
      <trkpt lat="42.05348" lon="-8.6396">
        <ele>18.4</ele>
        <time>2019-06-03T06:04:44Z</time>
      </trkpt>
      <trkpt lat="42.05343" lon="-8.63945">
        <ele>18.4</ele>
        <time>2019-06-03T06:04:57Z</time>
      </trkpt>
      <trkpt lat="42.05338" lon="-8.63939">
        <ele>18.88</ele>
        <time>2019-06-03T06:05:02Z</time>
      </trkpt>
      <trkpt lat="42.05327" lon="-8.63924">
        <ele>17.92</ele>
        <time>2019-06-03T06:05:18Z</time>
      </trkpt>
      <trkpt lat="42.05318" lon="-8.63907">
        <ele>16.48</ele>
        <time>2019-06-03T06:05:30Z</time>
      </trkpt>
      <trkpt lat="42.0531" lon="-8.63889">
        <ele>14.56</ele>
        <time>2019-06-03T06:05:44Z</time>
      </trkpt>
      <trkpt lat="42.05308" lon="-8.63871">
        <ele>12.15</ele>
        <time>2019-06-03T06:05:57Z</time>
      </trkpt>
      <trkpt lat="42.05309" lon="-8.63861">
        <ele>11.19</ele>
        <time>2019-06-03T06:06:04Z</time>
      </trkpt>
      <trkpt lat="42.05309" lon="-8.63842">
        <ele>9.75</ele>
        <time>2019-06-03T06:06:16Z</time>
      </trkpt>
      <trkpt lat="42.05306" lon="-8.63827">
        <ele>9.75</ele>
        <time>2019-06-03T06:06:27Z</time>
      </trkpt>
      <trkpt lat="42.05308" lon="-8.63808">
        <ele>8.79</ele>
        <time>2019-06-03T06:06:39Z</time>
      </trkpt>
      <trkpt lat="42.05313" lon="-8.63784">
        <ele>8.79</ele>
        <time>2019-06-03T06:06:54Z</time>
      </trkpt>
      <trkpt lat="42.05314" lon="-8.63777">
        <ele>8.31</ele>
        <time>2019-06-03T06:06:58Z</time>
      </trkpt>
      <trkpt lat="42.0532" lon="-8.63756">
        <ele>8.31</ele>
        <time>2019-06-03T06:07:14Z</time>
      </trkpt>
      <trkpt lat="42.0532" lon="-8.63752">
        <ele>8.79</ele>
        <time>2019-06-03T06:07:32Z</time>
      </trkpt>
      <trkpt lat="42.05322" lon="-8.63751">
        <ele>8.79</ele>
        <time>2019-06-03T06:07:57Z</time>
      </trkpt>
      <trkpt lat="42.05317" lon="-8.63748">
        <ele>8.79</ele>
        <time>2019-06-03T06:08:19Z</time>
      </trkpt>
      <trkpt lat="42.0532" lon="-8.63745">
        <ele>8.31</ele>
        <time>2019-06-03T06:08:31Z</time>
      </trkpt>
      <trkpt lat="42.05324" lon="-8.63741">
        <ele>7.83</ele>
        <time>2019-06-03T06:08:36Z</time>
      </trkpt>
      <trkpt lat="42.05336" lon="-8.63722">
        <ele>7.83</ele>
        <time>2019-06-03T06:08:53Z</time>
      </trkpt>
      <trkpt lat="42.05351" lon="-8.63713">
        <ele>7.83</ele>
        <time>2019-06-03T06:09:07Z</time>
      </trkpt>
      <trkpt lat="42.05356" lon="-8.63709">
        <ele>7.83</ele>
        <time>2019-06-03T06:09:12Z</time>
      </trkpt>
      <trkpt lat="42.05355" lon="-8.63695">
        <ele>7.35</ele>
        <time>2019-06-03T06:09:21Z</time>
      </trkpt>
      <trkpt lat="42.05373" lon="-8.63675">
        <ele>7.35</ele>
        <time>2019-06-03T06:09:37Z</time>
      </trkpt>
      <trkpt lat="42.05389" lon="-8.63659">
        <ele>6.39</ele>
        <time>2019-06-03T06:09:54Z</time>
      </trkpt>
      <trkpt lat="42.05399" lon="-8.63652">
        <ele>7.35</ele>
        <time>2019-06-03T06:10:04Z</time>
      </trkpt>
      <trkpt lat="42.05403" lon="-8.6365">
        <ele>6.39</ele>
        <time>2019-06-03T06:10:07Z</time>
      </trkpt>
      <trkpt lat="42.0542" lon="-8.63633">
        <ele>6.39</ele>
        <time>2019-06-03T06:10:24Z</time>
      </trkpt>
      <trkpt lat="42.05436" lon="-8.63617">
        <ele>6.39</ele>
        <time>2019-06-03T06:10:40Z</time>
      </trkpt>
      <trkpt lat="42.05452" lon="-8.63606">
        <ele>7.35</ele>
        <time>2019-06-03T06:10:55Z</time>
      </trkpt>
      <trkpt lat="42.05473" lon="-8.63602">
        <ele>7.35</ele>
        <time>2019-06-03T06:11:12Z</time>
      </trkpt>
      <trkpt lat="42.05483" lon="-8.63603">
        <ele>8.31</ele>
        <time>2019-06-03T06:11:22Z</time>
      </trkpt>
      <trkpt lat="42.05501" lon="-8.63608">
        <ele>8.79</ele>
        <time>2019-06-03T06:11:38Z</time>
      </trkpt>
      <trkpt lat="42.05504" lon="-8.63611">
        <ele>9.75</ele>
        <time>2019-06-03T06:11:42Z</time>
      </trkpt>
      <trkpt lat="42.05518" lon="-8.63621">
        <ele>11.19</ele>
        <time>2019-06-03T06:11:57Z</time>
      </trkpt>
      <trkpt lat="42.05521" lon="-8.6362">
        <ele>10.71</ele>
        <time>2019-06-03T06:12:00Z</time>
      </trkpt>
      <trkpt lat="42.05528" lon="-8.63609">
        <ele>10.23</ele>
        <time>2019-06-03T06:12:14Z</time>
      </trkpt>
      <trkpt lat="42.05544" lon="-8.63588">
        <ele>9.27</ele>
        <time>2019-06-03T06:12:32Z</time>
      </trkpt>
      <trkpt lat="42.05559" lon="-8.63569">
        <ele>9.27</ele>
        <time>2019-06-03T06:12:48Z</time>
      </trkpt>
      <trkpt lat="42.0557" lon="-8.63553">
        <ele>8.79</ele>
        <time>2019-06-03T06:13:01Z</time>
      </trkpt>
      <trkpt lat="42.05584" lon="-8.63537">
        <ele>8.79</ele>
        <time>2019-06-03T06:13:16Z</time>
      </trkpt>
      <trkpt lat="42.0559" lon="-8.63531">
        <ele>9.27</ele>
        <time>2019-06-03T06:13:23Z</time>
      </trkpt>
      <trkpt lat="42.05605" lon="-8.63517">
        <ele>11.19</ele>
        <time>2019-06-03T06:13:40Z</time>
      </trkpt>
      <trkpt lat="42.05611" lon="-8.63509">
        <ele>11.67</ele>
        <time>2019-06-03T06:13:48Z</time>
      </trkpt>
      <trkpt lat="42.05625" lon="-8.63504">
        <ele>10.23</ele>
        <time>2019-06-03T06:14:00Z</time>
      </trkpt>
      <trkpt lat="42.05637" lon="-8.635">
        <ele>9.27</ele>
        <time>2019-06-03T06:14:15Z</time>
      </trkpt>
      <trkpt lat="42.05639" lon="-8.63497">
        <ele>8.31</ele>
        <time>2019-06-03T06:14:30Z</time>
      </trkpt>
      <trkpt lat="42.0564" lon="-8.63495">
        <ele>7.83</ele>
        <time>2019-06-03T06:14:41Z</time>
      </trkpt>
      <trkpt lat="42.0564" lon="-8.63493">
        <ele>7.83</ele>
        <time>2019-06-03T06:14:58Z</time>
      </trkpt>
      <trkpt lat="42.05638" lon="-8.63495">
        <ele>7.83</ele>
        <time>2019-06-03T06:15:23Z</time>
      </trkpt>
      <trkpt lat="42.05639" lon="-8.63497">
        <ele>8.31</ele>
        <time>2019-06-03T06:15:39Z</time>
      </trkpt>
      <trkpt lat="42.05642" lon="-8.63493">
        <ele>8.31</ele>
        <time>2019-06-03T06:15:51Z</time>
      </trkpt>
      <trkpt lat="42.0564" lon="-8.63494">
        <ele>7.83</ele>
        <time>2019-06-03T06:16:07Z</time>
      </trkpt>
      <trkpt lat="42.05646" lon="-8.63495">
        <ele>7.83</ele>
        <time>2019-06-03T06:16:30Z</time>
      </trkpt>
      <trkpt lat="42.05655" lon="-8.6349">
        <ele>7.83</ele>
        <time>2019-06-03T06:16:39Z</time>
      </trkpt>
      <trkpt lat="42.05667" lon="-8.63481">
        <ele>7.83</ele>
        <time>2019-06-03T06:16:53Z</time>
      </trkpt>
      <trkpt lat="42.05668" lon="-8.63481">
        <ele>7.83</ele>
        <time>2019-06-03T06:17:08Z</time>
      </trkpt>
      <trkpt lat="42.05669" lon="-8.6348">
        <ele>7.35</ele>
        <time>2019-06-03T06:17:22Z</time>
      </trkpt>
      <trkpt lat="42.05669" lon="-8.6348">
        <ele>7.35</ele>
        <time>2019-06-03T06:17:24Z</time>
      </trkpt>
      <trkpt lat="42.05685" lon="-8.63477">
        <ele>6.87</ele>
        <time>2019-06-03T06:17:39Z</time>
      </trkpt>
      <trkpt lat="42.05693" lon="-8.63474">
        <ele>6.87</ele>
        <time>2019-06-03T06:17:45Z</time>
      </trkpt>
      <trkpt lat="42.05719" lon="-8.63471">
        <ele>6.87</ele>
        <time>2019-06-03T06:18:03Z</time>
      </trkpt>
      <trkpt lat="42.05734" lon="-8.63473">
        <ele>7.35</ele>
        <time>2019-06-03T06:18:15Z</time>
      </trkpt>
      <trkpt lat="42.05748" lon="-8.63479">
        <ele>7.35</ele>
        <time>2019-06-03T06:18:29Z</time>
      </trkpt>
      <trkpt lat="42.05767" lon="-8.63489">
        <ele>7.83</ele>
        <time>2019-06-03T06:18:45Z</time>
      </trkpt>
      <trkpt lat="42.05783" lon="-8.63495">
        <ele>7.83</ele>
        <time>2019-06-03T06:18:59Z</time>
      </trkpt>
      <trkpt lat="42.05798" lon="-8.63501">
        <ele>8.31</ele>
        <time>2019-06-03T06:19:13Z</time>
      </trkpt>
      <trkpt lat="42.05799" lon="-8.63502">
        <ele>7.83</ele>
        <time>2019-06-03T06:19:14Z</time>
      </trkpt>
      <trkpt lat="42.05817" lon="-8.63514">
        <ele>7.35</ele>
        <time>2019-06-03T06:19:29Z</time>
      </trkpt>
      <trkpt lat="42.05832" lon="-8.63535">
        <ele>7.35</ele>
        <time>2019-06-03T06:19:45Z</time>
      </trkpt>
      <trkpt lat="42.05837" lon="-8.63555">
        <ele>7.35</ele>
        <time>2019-06-03T06:19:58Z</time>
      </trkpt>
      <trkpt lat="42.05839" lon="-8.63565">
        <ele>7.35</ele>
        <time>2019-06-03T06:20:04Z</time>
      </trkpt>
      <trkpt lat="42.0584" lon="-8.63569">
        <ele>7.83</ele>
        <time>2019-06-03T06:20:07Z</time>
      </trkpt>
      <trkpt lat="42.05836" lon="-8.63593">
        <ele>7.35</ele>
        <time>2019-06-03T06:20:22Z</time>
      </trkpt>
      <trkpt lat="42.05834" lon="-8.63604">
        <ele>7.83</ele>
        <time>2019-06-03T06:20:28Z</time>
      </trkpt>
      <trkpt lat="42.05834" lon="-8.63626">
        <ele>8.31</ele>
        <time>2019-06-03T06:20:42Z</time>
      </trkpt>
      <trkpt lat="42.05839" lon="-8.63638">
        <ele>8.79</ele>
        <time>2019-06-03T06:20:49Z</time>
      </trkpt>
      <trkpt lat="42.05856" lon="-8.63648">
        <ele>8.31</ele>
        <time>2019-06-03T06:21:03Z</time>
      </trkpt>
      <trkpt lat="42.05856" lon="-8.63649">
        <ele>8.79</ele>
        <time>2019-06-03T06:21:04Z</time>
      </trkpt>
      <trkpt lat="42.05871" lon="-8.63658">
        <ele>8.79</ele>
        <time>2019-06-03T06:21:17Z</time>
      </trkpt>
      <trkpt lat="42.05886" lon="-8.63668">
        <ele>8.79</ele>
        <time>2019-06-03T06:21:30Z</time>
      </trkpt>
      <trkpt lat="42.0589" lon="-8.63671">
        <ele>9.75</ele>
        <time>2019-06-03T06:21:34Z</time>
      </trkpt>
      <trkpt lat="42.05891" lon="-8.63673">
        <ele>9.27</ele>
        <time>2019-06-03T06:21:36Z</time>
      </trkpt>
      <trkpt lat="42.05894" lon="-8.63676">
        <ele>9.75</ele>
        <time>2019-06-03T06:21:39Z</time>
      </trkpt>
      <trkpt lat="42.05897" lon="-8.63681">
        <ele>10.23</ele>
        <time>2019-06-03T06:21:44Z</time>
      </trkpt>
      <trkpt lat="42.05898" lon="-8.63686">
        <ele>10.23</ele>
        <time>2019-06-03T06:21:48Z</time>
      </trkpt>
      <trkpt lat="42.059" lon="-8.6371">
        <ele>12.15</ele>
        <time>2019-06-03T06:22:03Z</time>
      </trkpt>
      <trkpt lat="42.059" lon="-8.63723">
        <ele>13.12</ele>
        <time>2019-06-03T06:22:13Z</time>
      </trkpt>
      <trkpt lat="42.059" lon="-8.6373">
        <ele>13.6</ele>
        <time>2019-06-03T06:22:18Z</time>
      </trkpt>
      <trkpt lat="42.05905" lon="-8.63748">
        <ele>14.08</ele>
        <time>2019-06-03T06:22:31Z</time>
      </trkpt>
      <trkpt lat="42.05912" lon="-8.63767">
        <ele>14.08</ele>
        <time>2019-06-03T06:22:44Z</time>
      </trkpt>
      <trkpt lat="42.05912" lon="-8.63786">
        <ele>15.04</ele>
        <time>2019-06-03T06:22:56Z</time>
      </trkpt>
      <trkpt lat="42.05915" lon="-8.63804">
        <ele>15.04</ele>
        <time>2019-06-03T06:23:08Z</time>
      </trkpt>
      <trkpt lat="42.05918" lon="-8.6381">
        <ele>14.08</ele>
        <time>2019-06-03T06:23:13Z</time>
      </trkpt>
      <trkpt lat="42.05938" lon="-8.63808">
        <ele>13.6</ele>
        <time>2019-06-03T06:23:28Z</time>
      </trkpt>
      <trkpt lat="42.05947" lon="-8.63805">
        <ele>13.12</ele>
        <time>2019-06-03T06:23:36Z</time>
      </trkpt>
      <trkpt lat="42.05967" lon="-8.63798">
        <ele>12.63</ele>
        <time>2019-06-03T06:23:52Z</time>
      </trkpt>
      <trkpt lat="42.05986" lon="-8.63789">
        <ele>11.67</ele>
        <time>2019-06-03T06:24:08Z</time>
      </trkpt>
      <trkpt lat="42.06002" lon="-8.6378">
        <ele>10.23</ele>
        <time>2019-06-03T06:24:23Z</time>
      </trkpt>
      <trkpt lat="42.06014" lon="-8.63775">
        <ele>9.75</ele>
        <time>2019-06-03T06:24:33Z</time>
      </trkpt>
      <trkpt lat="42.06036" lon="-8.63764">
        <ele>8.31</ele>
        <time>2019-06-03T06:24:51Z</time>
      </trkpt>
      <trkpt lat="42.06044" lon="-8.6376">
        <ele>7.83</ele>
        <time>2019-06-03T06:24:57Z</time>
      </trkpt>
      <trkpt lat="42.06058" lon="-8.63754">
        <ele>7.83</ele>
        <time>2019-06-03T06:25:12Z</time>
      </trkpt>
      <trkpt lat="42.06076" lon="-8.63745">
        <ele>7.35</ele>
        <time>2019-06-03T06:25:29Z</time>
      </trkpt>
      <trkpt lat="42.06091" lon="-8.63739">
        <ele>7.35</ele>
        <time>2019-06-03T06:25:42Z</time>
      </trkpt>
      <trkpt lat="42.06109" lon="-8.63733">
        <ele>6.87</ele>
        <time>2019-06-03T06:25:59Z</time>
      </trkpt>
      <trkpt lat="42.06127" lon="-8.63727">
        <ele>6.87</ele>
        <time>2019-06-03T06:26:13Z</time>
      </trkpt>
      <trkpt lat="42.06147" lon="-8.63721">
        <ele>6.39</ele>
        <time>2019-06-03T06:26:29Z</time>
      </trkpt>
      <trkpt lat="42.06157" lon="-8.63715">
        <ele>6.39</ele>
        <time>2019-06-03T06:26:37Z</time>
      </trkpt>
      <trkpt lat="42.0617" lon="-8.6371">
        <ele>6.39</ele>
        <time>2019-06-03T06:26:48Z</time>
      </trkpt>
      <trkpt lat="42.06185" lon="-8.63711">
        <ele>6.87</ele>
        <time>2019-06-03T06:27:01Z</time>
      </trkpt>
      <trkpt lat="42.06198" lon="-8.63729">
        <ele>6.39</ele>
        <time>2019-06-03T06:27:15Z</time>
      </trkpt>
      <trkpt lat="42.06202" lon="-8.6374">
        <ele>7.35</ele>
        <time>2019-06-03T06:27:22Z</time>
      </trkpt>
      <trkpt lat="42.06203" lon="-8.63763">
        <ele>7.35</ele>
        <time>2019-06-03T06:27:37Z</time>
      </trkpt>
      <trkpt lat="42.06201" lon="-8.63785">
        <ele>7.83</ele>
        <time>2019-06-03T06:27:50Z</time>
      </trkpt>
      <trkpt lat="42.06201" lon="-8.638">
        <ele>7.83</ele>
        <time>2019-06-03T06:27:58Z</time>
      </trkpt>
      <trkpt lat="42.06201" lon="-8.63821">
        <ele>8.31</ele>
        <time>2019-06-03T06:28:13Z</time>
      </trkpt>
      <trkpt lat="42.06204" lon="-8.63846">
        <ele>8.79</ele>
        <time>2019-06-03T06:28:25Z</time>
      </trkpt>
      <trkpt lat="42.06208" lon="-8.63865">
        <ele>8.31</ele>
        <time>2019-06-03T06:28:38Z</time>
      </trkpt>
      <trkpt lat="42.0621" lon="-8.63869">
        <ele>9.27</ele>
        <time>2019-06-03T06:28:41Z</time>
      </trkpt>
      <trkpt lat="42.0622" lon="-8.63891">
        <ele>9.27</ele>
        <time>2019-06-03T06:28:57Z</time>
      </trkpt>
      <trkpt lat="42.06221" lon="-8.63893">
        <ele>9.27</ele>
        <time>2019-06-03T06:28:58Z</time>
      </trkpt>
      <trkpt lat="42.06235" lon="-8.63904">
        <ele>9.27</ele>
        <time>2019-06-03T06:29:12Z</time>
      </trkpt>
      <trkpt lat="42.06256" lon="-8.63907">
        <ele>9.75</ele>
        <time>2019-06-03T06:29:27Z</time>
      </trkpt>
      <trkpt lat="42.06275" lon="-8.6391">
        <ele>9.75</ele>
        <time>2019-06-03T06:29:42Z</time>
      </trkpt>
      <trkpt lat="42.06299" lon="-8.63913">
        <ele>10.71</ele>
        <time>2019-06-03T06:29:59Z</time>
      </trkpt>
      <trkpt lat="42.06314" lon="-8.63908">
        <ele>11.19</ele>
        <time>2019-06-03T06:30:14Z</time>
      </trkpt>
      <trkpt lat="42.0633" lon="-8.63912">
        <ele>12.63</ele>
        <time>2019-06-03T06:30:28Z</time>
      </trkpt>
      <trkpt lat="42.06333" lon="-8.63912">
        <ele>12.63</ele>
        <time>2019-06-03T06:30:30Z</time>
      </trkpt>
      <trkpt lat="42.0635" lon="-8.63913">
        <ele>14.56</ele>
        <time>2019-06-03T06:30:45Z</time>
      </trkpt>
      <trkpt lat="42.06364" lon="-8.63914">
        <ele>15.52</ele>
        <time>2019-06-03T06:30:59Z</time>
      </trkpt>
      <trkpt lat="42.06378" lon="-8.63924">
        <ele>16.48</ele>
        <time>2019-06-03T06:31:13Z</time>
      </trkpt>
      <trkpt lat="42.0638" lon="-8.63929">
        <ele>16.48</ele>
        <time>2019-06-03T06:31:18Z</time>
      </trkpt>
      <trkpt lat="42.06377" lon="-8.63934">
        <ele>16.48</ele>
        <time>2019-06-03T06:31:23Z</time>
      </trkpt>
      <trkpt lat="42.06387" lon="-8.63939">
        <ele>16.48</ele>
        <time>2019-06-03T06:31:30Z</time>
      </trkpt>
      <trkpt lat="42.0639" lon="-8.63937">
        <ele>16.48</ele>
        <time>2019-06-03T06:31:33Z</time>
      </trkpt>
      <trkpt lat="42.06396" lon="-8.6393">
        <ele>16.96</ele>
        <time>2019-06-03T06:31:47Z</time>
      </trkpt>
      <trkpt lat="42.06397" lon="-8.63931">
        <ele>16.96</ele>
        <time>2019-06-03T06:31:55Z</time>
      </trkpt>
      <trkpt lat="42.06399" lon="-8.6393">
        <ele>16.48</ele>
        <time>2019-06-03T06:31:57Z</time>
      </trkpt>
      <trkpt lat="42.06408" lon="-8.6391">
        <ele>16.96</ele>
        <time>2019-06-03T06:32:12Z</time>
      </trkpt>
      <trkpt lat="42.06414" lon="-8.63896">
        <ele>16.96</ele>
        <time>2019-06-03T06:32:23Z</time>
      </trkpt>
      <trkpt lat="42.0642" lon="-8.63886">
        <ele>17.92</ele>
        <time>2019-06-03T06:32:36Z</time>
      </trkpt>
      <trkpt lat="42.06428" lon="-8.63873">
        <ele>17.92</ele>
        <time>2019-06-03T06:32:50Z</time>
      </trkpt>
      <trkpt lat="42.06437" lon="-8.63858">
        <ele>17.44</ele>
        <time>2019-06-03T06:33:03Z</time>
      </trkpt>
      <trkpt lat="42.06448" lon="-8.6384">
        <ele>17.92</ele>
        <time>2019-06-03T06:33:17Z</time>
      </trkpt>
      <trkpt lat="42.06458" lon="-8.63822">
        <ele>17.92</ele>
        <time>2019-06-03T06:33:30Z</time>
      </trkpt>
      <trkpt lat="42.06468" lon="-8.63807">
        <ele>17.92</ele>
        <time>2019-06-03T06:33:43Z</time>
      </trkpt>
      <trkpt lat="42.0648" lon="-8.63788">
        <ele>18.88</ele>
        <time>2019-06-03T06:33:58Z</time>
      </trkpt>
      <trkpt lat="42.06486" lon="-8.63781">
        <ele>18.88</ele>
        <time>2019-06-03T06:34:05Z</time>
      </trkpt>
      <trkpt lat="42.06499" lon="-8.63787">
        <ele>18.4</ele>
        <time>2019-06-03T06:34:19Z</time>
      </trkpt>
      <trkpt lat="42.06502" lon="-8.63788">
        <ele>18.88</ele>
        <time>2019-06-03T06:34:22Z</time>
      </trkpt>
      <trkpt lat="42.06508" lon="-8.63784">
        <ele>18.88</ele>
        <time>2019-06-03T06:34:27Z</time>
      </trkpt>
      <trkpt lat="42.06514" lon="-8.63781">
        <ele>18.88</ele>
        <time>2019-06-03T06:34:33Z</time>
      </trkpt>
      <trkpt lat="42.06528" lon="-8.63789">
        <ele>18.88</ele>
        <time>2019-06-03T06:34:47Z</time>
      </trkpt>
      <trkpt lat="42.06543" lon="-8.63799">
        <ele>19.36</ele>
        <time>2019-06-03T06:35:00Z</time>
      </trkpt>
      <trkpt lat="42.06563" lon="-8.63809">
        <ele>19.36</ele>
        <time>2019-06-03T06:35:18Z</time>
      </trkpt>
      <trkpt lat="42.06576" lon="-8.63815">
        <ele>19.84</ele>
        <time>2019-06-03T06:35:30Z</time>
      </trkpt>
      <trkpt lat="42.06588" lon="-8.63825">
        <ele>19.84</ele>
        <time>2019-06-03T06:35:42Z</time>
      </trkpt>
      <trkpt lat="42.06604" lon="-8.63835">
        <ele>19.84</ele>
        <time>2019-06-03T06:35:56Z</time>
      </trkpt>
      <trkpt lat="42.06611" lon="-8.63836">
        <ele>20.32</ele>
        <time>2019-06-03T06:36:03Z</time>
      </trkpt>
      <trkpt lat="42.06613" lon="-8.63838">
        <ele>20.32</ele>
        <time>2019-06-03T06:36:05Z</time>
      </trkpt>
      <trkpt lat="42.06623" lon="-8.63843">
        <ele>21.29</ele>
        <time>2019-06-03T06:36:18Z</time>
      </trkpt>
      <trkpt lat="42.06645" lon="-8.63847">
        <ele>22.25</ele>
        <time>2019-06-03T06:36:35Z</time>
      </trkpt>
      <trkpt lat="42.06664" lon="-8.6385">
        <ele>23.21</ele>
        <time>2019-06-03T06:36:52Z</time>
      </trkpt>
      <trkpt lat="42.06679" lon="-8.6385">
        <ele>24.65</ele>
        <time>2019-06-03T06:37:05Z</time>
      </trkpt>
      <trkpt lat="42.06693" lon="-8.63848">
        <ele>25.61</ele>
        <time>2019-06-03T06:37:18Z</time>
      </trkpt>
      <trkpt lat="42.06694" lon="-8.63848">
        <ele>25.61</ele>
        <time>2019-06-03T06:37:19Z</time>
      </trkpt>
      <trkpt lat="42.067" lon="-8.63847">
        <ele>26.57</ele>
        <time>2019-06-03T06:37:24Z</time>
      </trkpt>
      <trkpt lat="42.06716" lon="-8.63846">
        <ele>27.53</ele>
        <time>2019-06-03T06:37:39Z</time>
      </trkpt>
      <trkpt lat="42.06721" lon="-8.63845">
        <ele>27.53</ele>
        <time>2019-06-03T06:37:43Z</time>
      </trkpt>
      <trkpt lat="42.06738" lon="-8.63845">
        <ele>28.02</ele>
        <time>2019-06-03T06:37:58Z</time>
      </trkpt>
      <trkpt lat="42.06746" lon="-8.63844">
        <ele>28.02</ele>
        <time>2019-06-03T06:38:04Z</time>
      </trkpt>
      <trkpt lat="42.06768" lon="-8.63843">
        <ele>28.02</ele>
        <time>2019-06-03T06:38:21Z</time>
      </trkpt>
      <trkpt lat="42.06773" lon="-8.63843">
        <ele>27.53</ele>
        <time>2019-06-03T06:38:32Z</time>
      </trkpt>
      <trkpt lat="42.06796" lon="-8.63847">
        <ele>26.57</ele>
        <time>2019-06-03T06:38:50Z</time>
      </trkpt>
      <trkpt lat="42.06817" lon="-8.63854">
        <ele>24.65</ele>
        <time>2019-06-03T06:39:07Z</time>
      </trkpt>
      <trkpt lat="42.06818" lon="-8.63855">
        <ele>24.65</ele>
        <time>2019-06-03T06:39:08Z</time>
      </trkpt>
      <trkpt lat="42.06839" lon="-8.63864">
        <ele>23.21</ele>
        <time>2019-06-03T06:39:26Z</time>
      </trkpt>
      <trkpt lat="42.06857" lon="-8.63872">
        <ele>21.29</ele>
        <time>2019-06-03T06:39:41Z</time>
      </trkpt>
      <trkpt lat="42.06876" lon="-8.63879">
        <ele>19.36</ele>
        <time>2019-06-03T06:39:56Z</time>
      </trkpt>
      <trkpt lat="42.06893" lon="-8.63887">
        <ele>17.92</ele>
        <time>2019-06-03T06:40:10Z</time>
      </trkpt>
      <trkpt lat="42.06911" lon="-8.63891">
        <ele>16</ele>
        <time>2019-06-03T06:40:24Z</time>
      </trkpt>
      <trkpt lat="42.06934" lon="-8.63898">
        <ele>13.6</ele>
        <time>2019-06-03T06:40:42Z</time>
      </trkpt>
      <trkpt lat="42.06956" lon="-8.63903">
        <ele>11.67</ele>
        <time>2019-06-03T06:40:59Z</time>
      </trkpt>
      <trkpt lat="42.06973" lon="-8.63905">
        <ele>9.75</ele>
        <time>2019-06-03T06:41:14Z</time>
      </trkpt>
      <trkpt lat="42.06981" lon="-8.63907">
        <ele>9.27</ele>
        <time>2019-06-03T06:41:29Z</time>
      </trkpt>
      <trkpt lat="42.06988" lon="-8.63908">
        <ele>9.75</ele>
        <time>2019-06-03T06:41:35Z</time>
      </trkpt>
      <trkpt lat="42.0699" lon="-8.63908">
        <ele>9.75</ele>
        <time>2019-06-03T06:41:37Z</time>
      </trkpt>
      <trkpt lat="42.07006" lon="-8.63907">
        <ele>9.75</ele>
        <time>2019-06-03T06:41:51Z</time>
      </trkpt>
      <trkpt lat="42.0702" lon="-8.63903">
        <ele>9.75</ele>
        <time>2019-06-03T06:42:03Z</time>
      </trkpt>
      <trkpt lat="42.07036" lon="-8.63898">
        <ele>9.75</ele>
        <time>2019-06-03T06:42:16Z</time>
      </trkpt>
      <trkpt lat="42.07053" lon="-8.63892">
        <ele>10.23</ele>
        <time>2019-06-03T06:42:30Z</time>
      </trkpt>
      <trkpt lat="42.07062" lon="-8.63889">
        <ele>10.71</ele>
        <time>2019-06-03T06:42:38Z</time>
      </trkpt>
      <trkpt lat="42.07074" lon="-8.6388">
        <ele>11.19</ele>
        <time>2019-06-03T06:42:52Z</time>
      </trkpt>
      <trkpt lat="42.07078" lon="-8.63878">
        <ele>12.15</ele>
        <time>2019-06-03T06:43:09Z</time>
      </trkpt>
      <trkpt lat="42.07099" lon="-8.63869">
        <ele>13.6</ele>
        <time>2019-06-03T06:43:24Z</time>
      </trkpt>
      <trkpt lat="42.07116" lon="-8.63864">
        <ele>14.08</ele>
        <time>2019-06-03T06:43:39Z</time>
      </trkpt>
      <trkpt lat="42.07131" lon="-8.63866">
        <ele>15.04</ele>
        <time>2019-06-03T06:43:53Z</time>
      </trkpt>
      <trkpt lat="42.0715" lon="-8.6387">
        <ele>15.52</ele>
        <time>2019-06-03T06:44:06Z</time>
      </trkpt>
      <trkpt lat="42.07163" lon="-8.63873">
        <ele>17.44</ele>
        <time>2019-06-03T06:44:17Z</time>
      </trkpt>
      <trkpt lat="42.07165" lon="-8.63873">
        <ele>16.96</ele>
        <time>2019-06-03T06:44:19Z</time>
      </trkpt>
      <trkpt lat="42.07181" lon="-8.63872">
        <ele>17.44</ele>
        <time>2019-06-03T06:44:33Z</time>
      </trkpt>
      <trkpt lat="42.07182" lon="-8.63872">
        <ele>17.92</ele>
        <time>2019-06-03T06:44:34Z</time>
      </trkpt>
      <trkpt lat="42.07186" lon="-8.63874">
        <ele>17.44</ele>
        <time>2019-06-03T06:44:37Z</time>
      </trkpt>
      <trkpt lat="42.07204" lon="-8.63875">
        <ele>18.4</ele>
        <time>2019-06-03T06:44:52Z</time>
      </trkpt>
      <trkpt lat="42.07214" lon="-8.63876">
        <ele>17.92</ele>
        <time>2019-06-03T06:45:06Z</time>
      </trkpt>
      <trkpt lat="42.07235" lon="-8.63878">
        <ele>18.4</ele>
        <time>2019-06-03T06:45:23Z</time>
      </trkpt>
      <trkpt lat="42.07248" lon="-8.63881">
        <ele>18.88</ele>
        <time>2019-06-03T06:45:36Z</time>
      </trkpt>
      <trkpt lat="42.07249" lon="-8.63881">
        <ele>18.88</ele>
        <time>2019-06-03T06:45:37Z</time>
      </trkpt>
      <trkpt lat="42.07264" lon="-8.63887">
        <ele>18.88</ele>
        <time>2019-06-03T06:45:49Z</time>
      </trkpt>
      <trkpt lat="42.07286" lon="-8.639">
        <ele>19.36</ele>
        <time>2019-06-03T06:46:03Z</time>
      </trkpt>
      <trkpt lat="42.07303" lon="-8.63905">
        <ele>18.88</ele>
        <time>2019-06-03T06:46:16Z</time>
      </trkpt>
      <trkpt lat="42.07307" lon="-8.63907">
        <ele>18.88</ele>
        <time>2019-06-03T06:46:19Z</time>
      </trkpt>
      <trkpt lat="42.07326" lon="-8.63911">
        <ele>19.36</ele>
        <time>2019-06-03T06:46:35Z</time>
      </trkpt>
      <trkpt lat="42.07334" lon="-8.63912">
        <ele>19.36</ele>
        <time>2019-06-03T06:46:41Z</time>
      </trkpt>
      <trkpt lat="42.07348" lon="-8.63912">
        <ele>19.36</ele>
        <time>2019-06-03T06:46:53Z</time>
      </trkpt>
      <trkpt lat="42.07355" lon="-8.63911">
        <ele>19.36</ele>
        <time>2019-06-03T06:46:59Z</time>
      </trkpt>
      <trkpt lat="42.07357" lon="-8.63911">
        <ele>18.88</ele>
        <time>2019-06-03T06:47:01Z</time>
      </trkpt>
      <trkpt lat="42.07373" lon="-8.63912">
        <ele>18.88</ele>
        <time>2019-06-03T06:47:14Z</time>
      </trkpt>
      <trkpt lat="42.07376" lon="-8.63912">
        <ele>18.88</ele>
        <time>2019-06-03T06:47:17Z</time>
      </trkpt>
      <trkpt lat="42.07379" lon="-8.63912">
        <ele>19.36</ele>
        <time>2019-06-03T06:47:19Z</time>
      </trkpt>
      <trkpt lat="42.07401" lon="-8.63915">
        <ele>19.36</ele>
        <time>2019-06-03T06:47:34Z</time>
      </trkpt>
      <trkpt lat="42.07421" lon="-8.63922">
        <ele>18.4</ele>
        <time>2019-06-03T06:47:48Z</time>
      </trkpt>
      <trkpt lat="42.07423" lon="-8.63923">
        <ele>18.4</ele>
        <time>2019-06-03T06:47:50Z</time>
      </trkpt>
      <trkpt lat="42.0743" lon="-8.63923">
        <ele>17.92</ele>
        <time>2019-06-03T06:48:06Z</time>
      </trkpt>
      <trkpt lat="42.07441" lon="-8.63927">
        <ele>17.44</ele>
        <time>2019-06-03T06:48:18Z</time>
      </trkpt>
      <trkpt lat="42.07445" lon="-8.63929">
        <ele>17.44</ele>
        <time>2019-06-03T06:48:21Z</time>
      </trkpt>
      <trkpt lat="42.07463" lon="-8.63934">
        <ele>17.44</ele>
        <time>2019-06-03T06:48:36Z</time>
      </trkpt>
      <trkpt lat="42.07481" lon="-8.63939">
        <ele>16</ele>
        <time>2019-06-03T06:48:50Z</time>
      </trkpt>
      <trkpt lat="42.07502" lon="-8.63946">
        <ele>16</ele>
        <time>2019-06-03T06:49:06Z</time>
      </trkpt>
      <trkpt lat="42.07511" lon="-8.63948">
        <ele>15.52</ele>
        <time>2019-06-03T06:49:14Z</time>
      </trkpt>
      <trkpt lat="42.0753" lon="-8.63955">
        <ele>15.04</ele>
        <time>2019-06-03T06:49:31Z</time>
      </trkpt>
      <trkpt lat="42.07539" lon="-8.6396">
        <ele>15.52</ele>
        <time>2019-06-03T06:49:39Z</time>
      </trkpt>
      <trkpt lat="42.07543" lon="-8.6396">
        <ele>15.04</ele>
        <time>2019-06-03T06:49:43Z</time>
      </trkpt>
      <trkpt lat="42.0756" lon="-8.63964">
        <ele>15.04</ele>
        <time>2019-06-03T06:49:58Z</time>
      </trkpt>
      <trkpt lat="42.07574" lon="-8.63964">
        <ele>14.56</ele>
        <time>2019-06-03T06:50:09Z</time>
      </trkpt>
      <trkpt lat="42.07576" lon="-8.63965">
        <ele>15.04</ele>
        <time>2019-06-03T06:50:11Z</time>
      </trkpt>
      <trkpt lat="42.07595" lon="-8.63959">
        <ele>15.04</ele>
        <time>2019-06-03T06:50:26Z</time>
      </trkpt>
      <trkpt lat="42.07605" lon="-8.63955">
        <ele>15.04</ele>
        <time>2019-06-03T06:50:34Z</time>
      </trkpt>
      <trkpt lat="42.0762" lon="-8.63946">
        <ele>16</ele>
        <time>2019-06-03T06:50:47Z</time>
      </trkpt>
      <trkpt lat="42.07633" lon="-8.63935">
        <ele>16.48</ele>
        <time>2019-06-03T06:51:00Z</time>
      </trkpt>
      <trkpt lat="42.07653" lon="-8.63913">
        <ele>17.44</ele>
        <time>2019-06-03T06:51:15Z</time>
      </trkpt>
      <trkpt lat="42.07668" lon="-8.639">
        <ele>17.92</ele>
        <time>2019-06-03T06:51:30Z</time>
      </trkpt>
      <trkpt lat="42.07678" lon="-8.6389">
        <ele>18.4</ele>
        <time>2019-06-03T06:51:40Z</time>
      </trkpt>
      <trkpt lat="42.0769" lon="-8.63881">
        <ele>18.88</ele>
        <time>2019-06-03T06:51:51Z</time>
      </trkpt>
      <trkpt lat="42.07705" lon="-8.63869">
        <ele>19.36</ele>
        <time>2019-06-03T06:52:06Z</time>
      </trkpt>
      <trkpt lat="42.07715" lon="-8.6386">
        <ele>19.36</ele>
        <time>2019-06-03T06:52:15Z</time>
      </trkpt>
      <trkpt lat="42.07735" lon="-8.6385">
        <ele>20.32</ele>
        <time>2019-06-03T06:52:29Z</time>
      </trkpt>
      <trkpt lat="42.07741" lon="-8.63844">
        <ele>20.81</ele>
        <time>2019-06-03T06:52:37Z</time>
      </trkpt>
      <trkpt lat="42.07749" lon="-8.6384">
        <ele>21.29</ele>
        <time>2019-06-03T06:52:44Z</time>
      </trkpt>
      <trkpt lat="42.07754" lon="-8.63837">
        <ele>21.77</ele>
        <time>2019-06-03T06:52:57Z</time>
      </trkpt>
      <trkpt lat="42.07754" lon="-8.63836">
        <ele>20.81</ele>
        <time>2019-06-03T06:53:13Z</time>
      </trkpt>
      <trkpt lat="42.07759" lon="-8.63838">
        <ele>21.77</ele>
        <time>2019-06-03T06:53:38Z</time>
      </trkpt>
      <trkpt lat="42.0776" lon="-8.63833">
        <ele>21.77</ele>
        <time>2019-06-03T06:54:05Z</time>
      </trkpt>
      <trkpt lat="42.07768" lon="-8.63834">
        <ele>21.77</ele>
        <time>2019-06-03T06:54:11Z</time>
      </trkpt>
      <trkpt lat="42.0777" lon="-8.63835">
        <ele>22.25</ele>
        <time>2019-06-03T06:54:13Z</time>
      </trkpt>
      <trkpt lat="42.07773" lon="-8.63836">
        <ele>22.25</ele>
        <time>2019-06-03T06:54:16Z</time>
      </trkpt>
      <trkpt lat="42.07788" lon="-8.6384">
        <ele>22.25</ele>
        <time>2019-06-03T06:54:29Z</time>
      </trkpt>
      <trkpt lat="42.078" lon="-8.63844">
        <ele>22.25</ele>
        <time>2019-06-03T06:54:39Z</time>
      </trkpt>
      <trkpt lat="42.07815" lon="-8.63851">
        <ele>22.73</ele>
        <time>2019-06-03T06:54:53Z</time>
      </trkpt>
      <trkpt lat="42.07816" lon="-8.63851">
        <ele>22.73</ele>
        <time>2019-06-03T06:54:54Z</time>
      </trkpt>
      <trkpt lat="42.07832" lon="-8.63858">
        <ele>23.21</ele>
        <time>2019-06-03T06:55:07Z</time>
      </trkpt>
      <trkpt lat="42.07845" lon="-8.63862">
        <ele>22.73</ele>
        <time>2019-06-03T06:55:20Z</time>
      </trkpt>
      <trkpt lat="42.07857" lon="-8.63864">
        <ele>22.73</ele>
        <time>2019-06-03T06:55:32Z</time>
      </trkpt>
      <trkpt lat="42.07873" lon="-8.63867">
        <ele>22.73</ele>
        <time>2019-06-03T06:55:44Z</time>
      </trkpt>
      <trkpt lat="42.07893" lon="-8.63875">
        <ele>22.25</ele>
        <time>2019-06-03T06:55:59Z</time>
      </trkpt>
      <trkpt lat="42.07907" lon="-8.6388">
        <ele>22.25</ele>
        <time>2019-06-03T06:56:11Z</time>
      </trkpt>
      <trkpt lat="42.07925" lon="-8.63887">
        <ele>22.25</ele>
        <time>2019-06-03T06:56:28Z</time>
      </trkpt>
      <trkpt lat="42.07929" lon="-8.63887">
        <ele>22.73</ele>
        <time>2019-06-03T06:56:31Z</time>
      </trkpt>
      <trkpt lat="42.07948" lon="-8.63891">
        <ele>22.73</ele>
        <time>2019-06-03T06:56:48Z</time>
      </trkpt>
      <trkpt lat="42.07969" lon="-8.63893">
        <ele>23.21</ele>
        <time>2019-06-03T06:57:06Z</time>
      </trkpt>
      <trkpt lat="42.07984" lon="-8.63895">
        <ele>23.69</ele>
        <time>2019-06-03T06:57:21Z</time>
      </trkpt>
      <trkpt lat="42.08006" lon="-8.63897">
        <ele>23.69</ele>
        <time>2019-06-03T06:57:35Z</time>
      </trkpt>
      <trkpt lat="42.08027" lon="-8.63897">
        <ele>23.69</ele>
        <time>2019-06-03T06:57:49Z</time>
      </trkpt>
      <trkpt lat="42.08047" lon="-8.63897">
        <ele>23.21</ele>
        <time>2019-06-03T06:58:03Z</time>
      </trkpt>
      <trkpt lat="42.08066" lon="-8.63907">
        <ele>22.73</ele>
        <time>2019-06-03T06:58:18Z</time>
      </trkpt>
      <trkpt lat="42.0808" lon="-8.63923">
        <ele>22.25</ele>
        <time>2019-06-03T06:58:33Z</time>
      </trkpt>
      <trkpt lat="42.08092" lon="-8.6394">
        <ele>20.32</ele>
        <time>2019-06-03T06:58:48Z</time>
      </trkpt>
      <trkpt lat="42.08104" lon="-8.63958">
        <ele>20.32</ele>
        <time>2019-06-03T06:59:05Z</time>
      </trkpt>
      <trkpt lat="42.08105" lon="-8.63961">
        <ele>20.32</ele>
        <time>2019-06-03T06:59:07Z</time>
      </trkpt>
      <trkpt lat="42.08112" lon="-8.63992">
        <ele>18.88</ele>
        <time>2019-06-03T06:59:22Z</time>
      </trkpt>
      <trkpt lat="42.08124" lon="-8.64013">
        <ele>17.92</ele>
        <time>2019-06-03T06:59:37Z</time>
      </trkpt>
      <trkpt lat="42.0814" lon="-8.64027">
        <ele>16.96</ele>
        <time>2019-06-03T06:59:52Z</time>
      </trkpt>
      <trkpt lat="42.08148" lon="-8.6403">
        <ele>16.96</ele>
        <time>2019-06-03T07:00:06Z</time>
      </trkpt>
      <trkpt lat="42.08153" lon="-8.64034">
        <ele>16.96</ele>
        <time>2019-06-03T07:00:18Z</time>
      </trkpt>
      <trkpt lat="42.08167" lon="-8.64042">
        <ele>16.96</ele>
        <time>2019-06-03T07:00:30Z</time>
      </trkpt>
      <trkpt lat="42.08179" lon="-8.64049">
        <ele>17.44</ele>
        <time>2019-06-03T07:00:43Z</time>
      </trkpt>
      <trkpt lat="42.08186" lon="-8.6405">
        <ele>17.44</ele>
        <time>2019-06-03T07:00:55Z</time>
      </trkpt>
      <trkpt lat="42.08187" lon="-8.64052">
        <ele>17.44</ele>
        <time>2019-06-03T07:01:02Z</time>
      </trkpt>
      <trkpt lat="42.08207" lon="-8.64064">
        <ele>18.4</ele>
        <time>2019-06-03T07:01:19Z</time>
      </trkpt>
      <trkpt lat="42.08211" lon="-8.64066">
        <ele>18.88</ele>
        <time>2019-06-03T07:01:23Z</time>
      </trkpt>
      <trkpt lat="42.08231" lon="-8.64077">
        <ele>19.84</ele>
        <time>2019-06-03T07:01:40Z</time>
      </trkpt>
      <trkpt lat="42.08245" lon="-8.64086">
        <ele>19.84</ele>
        <time>2019-06-03T07:01:54Z</time>
      </trkpt>
      <trkpt lat="42.08261" lon="-8.64098">
        <ele>19.84</ele>
        <time>2019-06-03T07:02:10Z</time>
      </trkpt>
      <trkpt lat="42.08269" lon="-8.64096">
        <ele>20.81</ele>
        <time>2019-06-03T07:02:19Z</time>
      </trkpt>
      <trkpt lat="42.0828" lon="-8.64076">
        <ele>21.77</ele>
        <time>2019-06-03T07:02:36Z</time>
      </trkpt>
      <trkpt lat="42.0828" lon="-8.64054">
        <ele>23.21</ele>
        <time>2019-06-03T07:02:49Z</time>
      </trkpt>
      <trkpt lat="42.08279" lon="-8.64044">
        <ele>23.69</ele>
        <time>2019-06-03T07:02:56Z</time>
      </trkpt>
      <trkpt lat="42.08279" lon="-8.64033">
        <ele>24.17</ele>
        <time>2019-06-03T07:03:01Z</time>
      </trkpt>
      <trkpt lat="42.0828" lon="-8.64022">
        <ele>24.65</ele>
        <time>2019-06-03T07:03:08Z</time>
      </trkpt>
      <trkpt lat="42.08285" lon="-8.64004">
        <ele>26.09</ele>
        <time>2019-06-03T07:03:22Z</time>
      </trkpt>
      <trkpt lat="42.0829" lon="-8.63984">
        <ele>27.53</ele>
        <time>2019-06-03T07:03:36Z</time>
      </trkpt>
      <trkpt lat="42.08296" lon="-8.63967">
        <ele>29.46</ele>
        <time>2019-06-03T07:03:50Z</time>
      </trkpt>
      <trkpt lat="42.08302" lon="-8.63951">
        <ele>29.94</ele>
        <time>2019-06-03T07:04:03Z</time>
      </trkpt>
      <trkpt lat="42.08312" lon="-8.63931">
        <ele>30.9</ele>
        <time>2019-06-03T07:04:17Z</time>
      </trkpt>
      <trkpt lat="42.08319" lon="-8.63913">
        <ele>30.9</ele>
        <time>2019-06-03T07:04:33Z</time>
      </trkpt>
      <trkpt lat="42.08334" lon="-8.6389">
        <ele>29.46</ele>
        <time>2019-06-03T07:04:50Z</time>
      </trkpt>
      <trkpt lat="42.0834" lon="-8.63883">
        <ele>29.46</ele>
        <time>2019-06-03T07:04:56Z</time>
      </trkpt>
      <trkpt lat="42.08353" lon="-8.63874">
        <ele>27.53</ele>
        <time>2019-06-03T07:05:08Z</time>
      </trkpt>
      <trkpt lat="42.08366" lon="-8.63859">
        <ele>26.57</ele>
        <time>2019-06-03T07:05:24Z</time>
      </trkpt>
      <trkpt lat="42.0838" lon="-8.6385">
        <ele>26.09</ele>
        <time>2019-06-03T07:05:36Z</time>
      </trkpt>
      <trkpt lat="42.08397" lon="-8.63836">
        <ele>25.13</ele>
        <time>2019-06-03T07:05:53Z</time>
      </trkpt>
      <trkpt lat="42.08413" lon="-8.63824">
        <ele>23.21</ele>
        <time>2019-06-03T07:06:08Z</time>
      </trkpt>
      <trkpt lat="42.08429" lon="-8.63823">
        <ele>22.73</ele>
        <time>2019-06-03T07:06:23Z</time>
      </trkpt>
      <trkpt lat="42.08431" lon="-8.63819">
        <ele>22.25</ele>
        <time>2019-06-03T07:06:26Z</time>
      </trkpt>
      <trkpt lat="42.08449" lon="-8.63805">
        <ele>20.32</ele>
        <time>2019-06-03T07:06:42Z</time>
      </trkpt>
      <trkpt lat="42.08465" lon="-8.63795">
        <ele>19.36</ele>
        <time>2019-06-03T07:06:59Z</time>
      </trkpt>
      <trkpt lat="42.08479" lon="-8.63784">
        <ele>18.4</ele>
        <time>2019-06-03T07:07:14Z</time>
      </trkpt>
      <trkpt lat="42.08494" lon="-8.63775">
        <ele>18.4</ele>
        <time>2019-06-03T07:07:30Z</time>
      </trkpt>
      <trkpt lat="42.08507" lon="-8.63759">
        <ele>17.44</ele>
        <time>2019-06-03T07:07:44Z</time>
      </trkpt>
      <trkpt lat="42.08514" lon="-8.63747">
        <ele>16</ele>
        <time>2019-06-03T07:07:52Z</time>
      </trkpt>
      <trkpt lat="42.08527" lon="-8.63729">
        <ele>14.56</ele>
        <time>2019-06-03T07:08:10Z</time>
      </trkpt>
      <trkpt lat="42.08541" lon="-8.63717">
        <ele>13.6</ele>
        <time>2019-06-03T07:08:27Z</time>
      </trkpt>
      <trkpt lat="42.08551" lon="-8.63714">
        <ele>12.15</ele>
        <time>2019-06-03T07:08:41Z</time>
      </trkpt>
      <trkpt lat="42.08565" lon="-8.63709">
        <ele>11.19</ele>
        <time>2019-06-03T07:08:57Z</time>
      </trkpt>
      <trkpt lat="42.0857" lon="-8.63711">
        <ele>10.71</ele>
        <time>2019-06-03T07:09:06Z</time>
      </trkpt>
      <trkpt lat="42.08597" lon="-8.6373">
        <ele>9.75</ele>
        <time>2019-06-03T07:09:21Z</time>
      </trkpt>
      <trkpt lat="42.08608" lon="-8.6374">
        <ele>9.27</ele>
        <time>2019-06-03T07:09:33Z</time>
      </trkpt>
      <trkpt lat="42.08609" lon="-8.63742">
        <ele>8.79</ele>
        <time>2019-06-03T07:09:35Z</time>
      </trkpt>
      <trkpt lat="42.08619" lon="-8.63743">
        <ele>9.27</ele>
        <time>2019-06-03T07:09:48Z</time>
      </trkpt>
      <trkpt lat="42.08628" lon="-8.63744">
        <ele>8.31</ele>
        <time>2019-06-03T07:09:53Z</time>
      </trkpt>
      <trkpt lat="42.08637" lon="-8.63749">
        <ele>8.79</ele>
        <time>2019-06-03T07:10:09Z</time>
      </trkpt>
      <trkpt lat="42.08636" lon="-8.63752">
        <ele>8.31</ele>
        <time>2019-06-03T07:10:26Z</time>
      </trkpt>
      <trkpt lat="42.08642" lon="-8.63761">
        <ele>9.75</ele>
        <time>2019-06-03T07:10:43Z</time>
      </trkpt>
      <trkpt lat="42.08643" lon="-8.63763">
        <ele>9.27</ele>
        <time>2019-06-03T07:10:45Z</time>
      </trkpt>
      <trkpt lat="42.08653" lon="-8.63788">
        <ele>9.27</ele>
        <time>2019-06-03T07:11:02Z</time>
      </trkpt>
      <trkpt lat="42.08664" lon="-8.63807">
        <ele>9.75</ele>
        <time>2019-06-03T07:11:18Z</time>
      </trkpt>
      <trkpt lat="42.08678" lon="-8.63826">
        <ele>9.27</ele>
        <time>2019-06-03T07:11:34Z</time>
      </trkpt>
      <trkpt lat="42.08697" lon="-8.63845">
        <ele>9.27</ele>
        <time>2019-06-03T07:11:49Z</time>
      </trkpt>
      <trkpt lat="42.08704" lon="-8.63852">
        <ele>9.27</ele>
        <time>2019-06-03T07:11:56Z</time>
      </trkpt>
      <trkpt lat="42.08718" lon="-8.63862">
        <ele>9.75</ele>
        <time>2019-06-03T07:12:12Z</time>
      </trkpt>
      <trkpt lat="42.0873" lon="-8.6387">
        <ele>9.75</ele>
        <time>2019-06-03T07:12:26Z</time>
      </trkpt>
      <trkpt lat="42.08734" lon="-8.63872">
        <ele>9.75</ele>
        <time>2019-06-03T07:12:42Z</time>
      </trkpt>
      <trkpt lat="42.0875" lon="-8.63887">
        <ele>9.27</ele>
        <time>2019-06-03T07:12:59Z</time>
      </trkpt>
      <trkpt lat="42.08769" lon="-8.63899">
        <ele>9.75</ele>
        <time>2019-06-03T07:13:15Z</time>
      </trkpt>
      <trkpt lat="42.08788" lon="-8.63906">
        <ele>9.27</ele>
        <time>2019-06-03T07:13:31Z</time>
      </trkpt>
      <trkpt lat="42.0879" lon="-8.63907">
        <ele>9.75</ele>
        <time>2019-06-03T07:13:33Z</time>
      </trkpt>
      <trkpt lat="42.08809" lon="-8.63915">
        <ele>9.27</ele>
        <time>2019-06-03T07:13:50Z</time>
      </trkpt>
      <trkpt lat="42.0883" lon="-8.63918">
        <ele>9.27</ele>
        <time>2019-06-03T07:14:07Z</time>
      </trkpt>
      <trkpt lat="42.0885" lon="-8.6392">
        <ele>8.79</ele>
        <time>2019-06-03T07:14:23Z</time>
      </trkpt>
      <trkpt lat="42.0887" lon="-8.63923">
        <ele>9.27</ele>
        <time>2019-06-03T07:14:39Z</time>
      </trkpt>
      <trkpt lat="42.08886" lon="-8.63928">
        <ele>9.27</ele>
        <time>2019-06-03T07:14:53Z</time>
      </trkpt>
      <trkpt lat="42.08905" lon="-8.63932">
        <ele>9.27</ele>
        <time>2019-06-03T07:15:09Z</time>
      </trkpt>
      <trkpt lat="42.08922" lon="-8.63931">
        <ele>10.23</ele>
        <time>2019-06-03T07:15:26Z</time>
      </trkpt>
      <trkpt lat="42.0894" lon="-8.63926">
        <ele>9.27</ele>
        <time>2019-06-03T07:15:43Z</time>
      </trkpt>
      <trkpt lat="42.08949" lon="-8.63921">
        <ele>9.27</ele>
        <time>2019-06-03T07:15:50Z</time>
      </trkpt>
      <trkpt lat="42.08964" lon="-8.63911">
        <ele>8.79</ele>
        <time>2019-06-03T07:16:03Z</time>
      </trkpt>
      <trkpt lat="42.08972" lon="-8.63904">
        <ele>9.75</ele>
        <time>2019-06-03T07:16:13Z</time>
      </trkpt>
      <trkpt lat="42.08987" lon="-8.63908">
        <ele>9.27</ele>
        <time>2019-06-03T07:16:32Z</time>
      </trkpt>
      <trkpt lat="42.09003" lon="-8.6391">
        <ele>9.27</ele>
        <time>2019-06-03T07:16:48Z</time>
      </trkpt>
      <trkpt lat="42.09022" lon="-8.63917">
        <ele>9.75</ele>
        <time>2019-06-03T07:17:05Z</time>
      </trkpt>
      <trkpt lat="42.09027" lon="-8.63921">
        <ele>10.71</ele>
        <time>2019-06-03T07:17:12Z</time>
      </trkpt>
      <trkpt lat="42.09051" lon="-8.63928">
        <ele>12.15</ele>
        <time>2019-06-03T07:17:31Z</time>
      </trkpt>
      <trkpt lat="42.09065" lon="-8.63926">
        <ele>14.08</ele>
        <time>2019-06-03T07:17:46Z</time>
      </trkpt>
      <trkpt lat="42.09082" lon="-8.63925">
        <ele>16</ele>
        <time>2019-06-03T07:18:03Z</time>
      </trkpt>
      <trkpt lat="42.09106" lon="-8.63928">
        <ele>17.44</ele>
        <time>2019-06-03T07:18:21Z</time>
      </trkpt>
      <trkpt lat="42.09122" lon="-8.63931">
        <ele>17.92</ele>
        <time>2019-06-03T07:18:35Z</time>
      </trkpt>
      <trkpt lat="42.09129" lon="-8.63931">
        <ele>19.36</ele>
        <time>2019-06-03T07:18:48Z</time>
      </trkpt>
      <trkpt lat="42.09146" lon="-8.63931">
        <ele>19.84</ele>
        <time>2019-06-03T07:19:03Z</time>
      </trkpt>
      <trkpt lat="42.09168" lon="-8.63927">
        <ele>20.81</ele>
        <time>2019-06-03T07:19:20Z</time>
      </trkpt>
      <trkpt lat="42.09186" lon="-8.63927">
        <ele>20.81</ele>
        <time>2019-06-03T07:19:36Z</time>
      </trkpt>
      <trkpt lat="42.09208" lon="-8.63924">
        <ele>20.81</ele>
        <time>2019-06-03T07:19:53Z</time>
      </trkpt>
      <trkpt lat="42.09225" lon="-8.63917">
        <ele>20.81</ele>
        <time>2019-06-03T07:20:07Z</time>
      </trkpt>
      <trkpt lat="42.09242" lon="-8.63911">
        <ele>21.29</ele>
        <time>2019-06-03T07:20:22Z</time>
      </trkpt>
      <trkpt lat="42.09263" lon="-8.63905">
        <ele>20.81</ele>
        <time>2019-06-03T07:20:39Z</time>
      </trkpt>
      <trkpt lat="42.09278" lon="-8.63901">
        <ele>21.29</ele>
        <time>2019-06-03T07:20:52Z</time>
      </trkpt>
      <trkpt lat="42.09299" lon="-8.63896">
        <ele>21.29</ele>
        <time>2019-06-03T07:21:09Z</time>
      </trkpt>
      <trkpt lat="42.09317" lon="-8.63892">
        <ele>22.25</ele>
        <time>2019-06-03T07:21:25Z</time>
      </trkpt>
      <trkpt lat="42.09333" lon="-8.63888">
        <ele>22.73</ele>
        <time>2019-06-03T07:21:38Z</time>
      </trkpt>
      <trkpt lat="42.09354" lon="-8.63879">
        <ele>23.21</ele>
        <time>2019-06-03T07:21:57Z</time>
      </trkpt>
      <trkpt lat="42.09361" lon="-8.63879">
        <ele>23.21</ele>
        <time>2019-06-03T07:22:02Z</time>
      </trkpt>
      <trkpt lat="42.09372" lon="-8.63878">
        <ele>24.17</ele>
        <time>2019-06-03T07:22:11Z</time>
      </trkpt>
      <trkpt lat="42.09374" lon="-8.63878">
        <ele>23.69</ele>
        <time>2019-06-03T07:22:13Z</time>
      </trkpt>
      <trkpt lat="42.09382" lon="-8.63877">
        <ele>24.65</ele>
        <time>2019-06-03T07:22:21Z</time>
      </trkpt>
      <trkpt lat="42.09388" lon="-8.63878">
        <ele>24.17</ele>
        <time>2019-06-03T07:22:26Z</time>
      </trkpt>
      <trkpt lat="42.09409" lon="-8.6387">
        <ele>23.69</ele>
        <time>2019-06-03T07:22:42Z</time>
      </trkpt>
      <trkpt lat="42.09415" lon="-8.63865">
        <ele>23.69</ele>
        <time>2019-06-03T07:22:47Z</time>
      </trkpt>
      <trkpt lat="42.09423" lon="-8.63862">
        <ele>24.17</ele>
        <time>2019-06-03T07:22:54Z</time>
      </trkpt>
      <trkpt lat="42.0943" lon="-8.63854">
        <ele>23.69</ele>
        <time>2019-06-03T07:23:01Z</time>
      </trkpt>
      <trkpt lat="42.09446" lon="-8.63846">
        <ele>24.65</ele>
        <time>2019-06-03T07:23:16Z</time>
      </trkpt>
      <trkpt lat="42.09463" lon="-8.63837">
        <ele>26.09</ele>
        <time>2019-06-03T07:23:34Z</time>
      </trkpt>
      <trkpt lat="42.09476" lon="-8.63834">
        <ele>26.57</ele>
        <time>2019-06-03T07:23:48Z</time>
      </trkpt>
      <trkpt lat="42.09481" lon="-8.63833">
        <ele>26.57</ele>
        <time>2019-06-03T07:23:53Z</time>
      </trkpt>
      <trkpt lat="42.09497" lon="-8.63837">
        <ele>28.02</ele>
        <time>2019-06-03T07:24:09Z</time>
      </trkpt>
      <trkpt lat="42.09498" lon="-8.63837">
        <ele>27.53</ele>
        <time>2019-06-03T07:24:10Z</time>
      </trkpt>
      <trkpt lat="42.09504" lon="-8.63837">
        <ele>27.53</ele>
        <time>2019-06-03T07:24:17Z</time>
      </trkpt>
      <trkpt lat="42.09515" lon="-8.63833">
        <ele>28.5</ele>
        <time>2019-06-03T07:24:27Z</time>
      </trkpt>
      <trkpt lat="42.09532" lon="-8.63839">
        <ele>28.98</ele>
        <time>2019-06-03T07:24:41Z</time>
      </trkpt>
      <trkpt lat="42.09546" lon="-8.63845">
        <ele>30.42</ele>
        <time>2019-06-03T07:24:52Z</time>
      </trkpt>
      <trkpt lat="42.0955" lon="-8.6385">
        <ele>30.42</ele>
        <time>2019-06-03T07:24:56Z</time>
      </trkpt>
      <trkpt lat="42.0955" lon="-8.63863">
        <ele>30.9</ele>
        <time>2019-06-03T07:25:12Z</time>
      </trkpt>
      <trkpt lat="42.09551" lon="-8.63866">
        <ele>30.42</ele>
        <time>2019-06-03T07:25:15Z</time>
      </trkpt>
      <trkpt lat="42.09551" lon="-8.63885">
        <ele>30.42</ele>
        <time>2019-06-03T07:25:28Z</time>
      </trkpt>
      <trkpt lat="42.09549" lon="-8.63889">
        <ele>29.94</ele>
        <time>2019-06-03T07:25:31Z</time>
      </trkpt>
      <trkpt lat="42.09542" lon="-8.63914">
        <ele>30.42</ele>
        <time>2019-06-03T07:25:47Z</time>
      </trkpt>
      <trkpt lat="42.09542" lon="-8.63928">
        <ele>30.42</ele>
        <time>2019-06-03T07:25:55Z</time>
      </trkpt>
      <trkpt lat="42.09544" lon="-8.63943">
        <ele>30.42</ele>
        <time>2019-06-03T07:26:04Z</time>
      </trkpt>
      <trkpt lat="42.09542" lon="-8.63961">
        <ele>30.42</ele>
        <time>2019-06-03T07:26:17Z</time>
      </trkpt>
      <trkpt lat="42.09542" lon="-8.63983">
        <ele>29.46</ele>
        <time>2019-06-03T07:26:31Z</time>
      </trkpt>
      <trkpt lat="42.09545" lon="-8.64009">
        <ele>28.98</ele>
        <time>2019-06-03T07:26:46Z</time>
      </trkpt>
      <trkpt lat="42.09547" lon="-8.64037">
        <ele>29.46</ele>
        <time>2019-06-03T07:27:02Z</time>
      </trkpt>
      <trkpt lat="42.09551" lon="-8.6406">
        <ele>28.98</ele>
        <time>2019-06-03T07:27:18Z</time>
      </trkpt>
      <trkpt lat="42.09558" lon="-8.64084">
        <ele>29.94</ele>
        <time>2019-06-03T07:27:32Z</time>
      </trkpt>
      <trkpt lat="42.0957" lon="-8.64099">
        <ele>30.9</ele>
        <time>2019-06-03T07:27:46Z</time>
      </trkpt>
      <trkpt lat="42.09588" lon="-8.641">
        <ele>31.86</ele>
        <time>2019-06-03T07:28:02Z</time>
      </trkpt>
      <trkpt lat="42.09605" lon="-8.64119">
        <ele>31.86</ele>
        <time>2019-06-03T07:28:20Z</time>
      </trkpt>
      <trkpt lat="42.09622" lon="-8.64132">
        <ele>30.9</ele>
        <time>2019-06-03T07:28:36Z</time>
      </trkpt>
      <trkpt lat="42.09642" lon="-8.64148">
        <ele>29.94</ele>
        <time>2019-06-03T07:28:53Z</time>
      </trkpt>
      <trkpt lat="42.09657" lon="-8.6416">
        <ele>28.98</ele>
        <time>2019-06-03T07:29:08Z</time>
      </trkpt>
      <trkpt lat="42.09658" lon="-8.6416">
        <ele>29.46</ele>
        <time>2019-06-03T07:29:09Z</time>
      </trkpt>
      <trkpt lat="42.09668" lon="-8.64152">
        <ele>29.94</ele>
        <time>2019-06-03T07:29:21Z</time>
      </trkpt>
      <trkpt lat="42.09681" lon="-8.64143">
        <ele>31.86</ele>
        <time>2019-06-03T07:29:36Z</time>
      </trkpt>
      <trkpt lat="42.09697" lon="-8.64137">
        <ele>32.34</ele>
        <time>2019-06-03T07:29:50Z</time>
      </trkpt>
      <trkpt lat="42.09709" lon="-8.64136">
        <ele>33.3</ele>
        <time>2019-06-03T07:30:01Z</time>
      </trkpt>
      <trkpt lat="42.09729" lon="-8.6414">
        <ele>34.26</ele>
        <time>2019-06-03T07:30:18Z</time>
      </trkpt>
      <trkpt lat="42.09738" lon="-8.64141">
        <ele>35.23</ele>
        <time>2019-06-03T07:30:26Z</time>
      </trkpt>
      <trkpt lat="42.09745" lon="-8.64118">
        <ele>35.71</ele>
        <time>2019-06-03T07:30:41Z</time>
      </trkpt>
      <trkpt lat="42.09745" lon="-8.64117">
        <ele>35.71</ele>
        <time>2019-06-03T07:30:42Z</time>
      </trkpt>
      <trkpt lat="42.09746" lon="-8.64105">
        <ele>36.19</ele>
        <time>2019-06-03T07:30:51Z</time>
      </trkpt>
      <trkpt lat="42.09744" lon="-8.64093">
        <ele>37.15</ele>
        <time>2019-06-03T07:31:03Z</time>
      </trkpt>
      <trkpt lat="42.0974" lon="-8.64085">
        <ele>36.67</ele>
        <time>2019-06-03T07:31:27Z</time>
      </trkpt>
      <trkpt lat="42.09738" lon="-8.64081">
        <ele>36.19</ele>
        <time>2019-06-03T07:31:44Z</time>
      </trkpt>
      <trkpt lat="42.09731" lon="-8.64061">
        <ele>36.67</ele>
        <time>2019-06-03T07:31:59Z</time>
      </trkpt>
      <trkpt lat="42.09725" lon="-8.64038">
        <ele>36.19</ele>
        <time>2019-06-03T07:32:14Z</time>
      </trkpt>
      <trkpt lat="42.09722" lon="-8.64029">
        <ele>36.19</ele>
        <time>2019-06-03T07:32:19Z</time>
      </trkpt>
      <trkpt lat="42.09718" lon="-8.64014">
        <ele>36.67</ele>
        <time>2019-06-03T07:32:29Z</time>
      </trkpt>
      <trkpt lat="42.09717" lon="-8.64011">
        <ele>36.67</ele>
        <time>2019-06-03T07:32:31Z</time>
      </trkpt>
      <trkpt lat="42.09716" lon="-8.64002">
        <ele>36.67</ele>
        <time>2019-06-03T07:32:36Z</time>
      </trkpt>
      <trkpt lat="42.09716" lon="-8.63995">
        <ele>36.19</ele>
        <time>2019-06-03T07:32:40Z</time>
      </trkpt>
      <trkpt lat="42.09727" lon="-8.6397">
        <ele>37.15</ele>
        <time>2019-06-03T07:32:58Z</time>
      </trkpt>
      <trkpt lat="42.09733" lon="-8.63963">
        <ele>37.15</ele>
        <time>2019-06-03T07:33:04Z</time>
      </trkpt>
      <trkpt lat="42.09746" lon="-8.63952">
        <ele>38.59</ele>
        <time>2019-06-03T07:33:17Z</time>
      </trkpt>
      <trkpt lat="42.09767" lon="-8.63945">
        <ele>37.15</ele>
        <time>2019-06-03T07:33:34Z</time>
      </trkpt>
      <trkpt lat="42.0977" lon="-8.63946">
        <ele>37.63</ele>
        <time>2019-06-03T07:33:47Z</time>
      </trkpt>
      <trkpt lat="42.0977" lon="-8.63944">
        <ele>37.63</ele>
        <time>2019-06-03T07:33:59Z</time>
      </trkpt>
      <trkpt lat="42.0977" lon="-8.63943">
        <ele>37.63</ele>
        <time>2019-06-03T07:34:15Z</time>
      </trkpt>
      <trkpt lat="42.09771" lon="-8.63946">
        <ele>37.63</ele>
        <time>2019-06-03T07:34:36Z</time>
      </trkpt>
      <trkpt lat="42.09785" lon="-8.63963">
        <ele>38.11</ele>
        <time>2019-06-03T07:34:52Z</time>
      </trkpt>
      <trkpt lat="42.09799" lon="-8.6398">
        <ele>36.67</ele>
        <time>2019-06-03T07:35:08Z</time>
      </trkpt>
      <trkpt lat="42.09814" lon="-8.63997">
        <ele>33.78</ele>
        <time>2019-06-03T07:35:23Z</time>
      </trkpt>
      <trkpt lat="42.09822" lon="-8.63993">
        <ele>32.34</ele>
        <time>2019-06-03T07:35:31Z</time>
      </trkpt>
      <trkpt lat="42.0983" lon="-8.63975">
        <ele>28.5</ele>
        <time>2019-06-03T07:35:46Z</time>
      </trkpt>
      <trkpt lat="42.09836" lon="-8.63962">
        <ele>28.02</ele>
        <time>2019-06-03T07:36:01Z</time>
      </trkpt>
      <trkpt lat="42.09839" lon="-8.63955">
        <ele>26.09</ele>
        <time>2019-06-03T07:36:09Z</time>
      </trkpt>
      <trkpt lat="42.09848" lon="-8.6393">
        <ele>24.17</ele>
        <time>2019-06-03T07:36:24Z</time>
      </trkpt>
      <trkpt lat="42.09854" lon="-8.63914">
        <ele>22.25</ele>
        <time>2019-06-03T07:36:39Z</time>
      </trkpt>
      <trkpt lat="42.09864" lon="-8.63894">
        <ele>21.77</ele>
        <time>2019-06-03T07:36:53Z</time>
      </trkpt>
      <trkpt lat="42.09874" lon="-8.63872">
        <ele>20.32</ele>
        <time>2019-06-03T07:37:10Z</time>
      </trkpt>
      <trkpt lat="42.09881" lon="-8.63863">
        <ele>18.88</ele>
        <time>2019-06-03T07:37:21Z</time>
      </trkpt>
      <trkpt lat="42.09892" lon="-8.6384">
        <ele>17.44</ele>
        <time>2019-06-03T07:37:35Z</time>
      </trkpt>
      <trkpt lat="42.099" lon="-8.63824">
        <ele>15.52</ele>
        <time>2019-06-03T07:37:47Z</time>
      </trkpt>
      <trkpt lat="42.09909" lon="-8.63817">
        <ele>15.04</ele>
        <time>2019-06-03T07:37:56Z</time>
      </trkpt>
      <trkpt lat="42.0992" lon="-8.63826">
        <ele>14.56</ele>
        <time>2019-06-03T07:38:09Z</time>
      </trkpt>
      <trkpt lat="42.09932" lon="-8.63831">
        <ele>13.6</ele>
        <time>2019-06-03T07:38:25Z</time>
      </trkpt>
      <trkpt lat="42.09931" lon="-8.63826">
        <ele>13.12</ele>
        <time>2019-06-03T07:38:50Z</time>
      </trkpt>
      <trkpt lat="42.09945" lon="-8.63822">
        <ele>13.6</ele>
        <time>2019-06-03T07:39:04Z</time>
      </trkpt>
      <trkpt lat="42.0996" lon="-8.63816">
        <ele>12.15</ele>
        <time>2019-06-03T07:39:20Z</time>
      </trkpt>
      <trkpt lat="42.09957" lon="-8.63794">
        <ele>12.15</ele>
        <time>2019-06-03T07:39:31Z</time>
      </trkpt>
      <trkpt lat="42.09966" lon="-8.63777">
        <ele>12.15</ele>
        <time>2019-06-03T07:39:44Z</time>
      </trkpt>
      <trkpt lat="42.09982" lon="-8.63768">
        <ele>12.15</ele>
        <time>2019-06-03T07:40:00Z</time>
      </trkpt>
      <trkpt lat="42.09992" lon="-8.63765">
        <ele>12.15</ele>
        <time>2019-06-03T07:40:13Z</time>
      </trkpt>
      <trkpt lat="42.10003" lon="-8.6376">
        <ele>12.15</ele>
        <time>2019-06-03T07:40:28Z</time>
      </trkpt>
      <trkpt lat="42.10013" lon="-8.63756">
        <ele>11.67</ele>
        <time>2019-06-03T07:40:35Z</time>
      </trkpt>
      <trkpt lat="42.1003" lon="-8.6375">
        <ele>11.67</ele>
        <time>2019-06-03T07:40:52Z</time>
      </trkpt>
      <trkpt lat="42.1004" lon="-8.63746">
        <ele>11.67</ele>
        <time>2019-06-03T07:41:10Z</time>
      </trkpt>
      <trkpt lat="42.1005" lon="-8.63736">
        <ele>11.67</ele>
        <time>2019-06-03T07:41:22Z</time>
      </trkpt>
      <trkpt lat="42.10064" lon="-8.63727">
        <ele>11.19</ele>
        <time>2019-06-03T07:41:36Z</time>
      </trkpt>
      <trkpt lat="42.10073" lon="-8.63726">
        <ele>11.19</ele>
        <time>2019-06-03T07:41:42Z</time>
      </trkpt>
      <trkpt lat="42.10096" lon="-8.63722">
        <ele>11.19</ele>
        <time>2019-06-03T07:41:59Z</time>
      </trkpt>
      <trkpt lat="42.10116" lon="-8.63716">
        <ele>11.67</ele>
        <time>2019-06-03T07:42:14Z</time>
      </trkpt>
      <trkpt lat="42.10134" lon="-8.63715">
        <ele>11.67</ele>
        <time>2019-06-03T07:42:29Z</time>
      </trkpt>
      <trkpt lat="42.10136" lon="-8.63716">
        <ele>11.67</ele>
        <time>2019-06-03T07:42:31Z</time>
      </trkpt>
      <trkpt lat="42.10153" lon="-8.63717">
        <ele>11.67</ele>
        <time>2019-06-03T07:42:46Z</time>
      </trkpt>
      <trkpt lat="42.10169" lon="-8.63714">
        <ele>12.15</ele>
        <time>2019-06-03T07:43:03Z</time>
      </trkpt>
      <trkpt lat="42.10178" lon="-8.63718">
        <ele>12.15</ele>
        <time>2019-06-03T07:43:22Z</time>
      </trkpt>
      <trkpt lat="42.10189" lon="-8.63718">
        <ele>11.67</ele>
        <time>2019-06-03T07:43:39Z</time>
      </trkpt>
      <trkpt lat="42.10192" lon="-8.63718">
        <ele>12.15</ele>
        <time>2019-06-03T07:43:42Z</time>
      </trkpt>
      <trkpt lat="42.10215" lon="-8.63712">
        <ele>11.19</ele>
        <time>2019-06-03T07:43:58Z</time>
      </trkpt>
      <trkpt lat="42.1022" lon="-8.63693">
        <ele>11.67</ele>
        <time>2019-06-03T07:44:12Z</time>
      </trkpt>
      <trkpt lat="42.10222" lon="-8.63688">
        <ele>11.67</ele>
        <time>2019-06-03T07:44:15Z</time>
      </trkpt>
      <trkpt lat="42.10231" lon="-8.63661">
        <ele>11.67</ele>
        <time>2019-06-03T07:44:31Z</time>
      </trkpt>
      <trkpt lat="42.10228" lon="-8.6364">
        <ele>11.67</ele>
        <time>2019-06-03T07:44:45Z</time>
      </trkpt>
      <trkpt lat="42.10225" lon="-8.63629">
        <ele>12.15</ele>
        <time>2019-06-03T07:44:51Z</time>
      </trkpt>
      <trkpt lat="42.10223" lon="-8.63624">
        <ele>12.15</ele>
        <time>2019-06-03T07:44:54Z</time>
      </trkpt>
      <trkpt lat="42.10218" lon="-8.63591">
        <ele>12.63</ele>
        <time>2019-06-03T07:45:11Z</time>
      </trkpt>
      <trkpt lat="42.10214" lon="-8.6357">
        <ele>12.63</ele>
        <time>2019-06-03T07:45:25Z</time>
      </trkpt>
      <trkpt lat="42.10213" lon="-8.63568">
        <ele>13.12</ele>
        <time>2019-06-03T07:45:27Z</time>
      </trkpt>
      <trkpt lat="42.10202" lon="-8.63551">
        <ele>13.12</ele>
        <time>2019-06-03T07:45:41Z</time>
      </trkpt>
      <trkpt lat="42.10187" lon="-8.63546">
        <ele>14.08</ele>
        <time>2019-06-03T07:45:56Z</time>
      </trkpt>
      <trkpt lat="42.10175" lon="-8.6354">
        <ele>14.08</ele>
        <time>2019-06-03T07:46:09Z</time>
      </trkpt>
      <trkpt lat="42.10163" lon="-8.6353">
        <ele>15.52</ele>
        <time>2019-06-03T07:46:25Z</time>
      </trkpt>
      <trkpt lat="42.10158" lon="-8.63524">
        <ele>15.52</ele>
        <time>2019-06-03T07:46:49Z</time>
      </trkpt>
      <trkpt lat="42.10146" lon="-8.63515">
        <ele>16.96</ele>
        <time>2019-06-03T07:47:06Z</time>
      </trkpt>
      <trkpt lat="42.10138" lon="-8.63505">
        <ele>18.4</ele>
        <time>2019-06-03T07:47:18Z</time>
      </trkpt>
      <trkpt lat="42.10127" lon="-8.63485">
        <ele>20.32</ele>
        <time>2019-06-03T07:47:34Z</time>
      </trkpt>
      <trkpt lat="42.10124" lon="-8.63478">
        <ele>21.29</ele>
        <time>2019-06-03T07:47:40Z</time>
      </trkpt>
      <trkpt lat="42.10124" lon="-8.63466">
        <ele>22.73</ele>
        <time>2019-06-03T07:47:53Z</time>
      </trkpt>
      <trkpt lat="42.10125" lon="-8.63464">
        <ele>22.73</ele>
        <time>2019-06-03T07:48:11Z</time>
      </trkpt>
      <trkpt lat="42.1013" lon="-8.63456">
        <ele>24.17</ele>
        <time>2019-06-03T07:48:26Z</time>
      </trkpt>
      <trkpt lat="42.10149" lon="-8.6345">
        <ele>26.09</ele>
        <time>2019-06-03T07:48:43Z</time>
      </trkpt>
      <trkpt lat="42.10154" lon="-8.6344">
        <ele>27.05</ele>
        <time>2019-06-03T07:48:52Z</time>
      </trkpt>
      <trkpt lat="42.1017" lon="-8.63426">
        <ele>27.05</ele>
        <time>2019-06-03T07:49:09Z</time>
      </trkpt>
      <trkpt lat="42.1018" lon="-8.6341">
        <ele>27.53</ele>
        <time>2019-06-03T07:49:24Z</time>
      </trkpt>
      <trkpt lat="42.1018" lon="-8.63408">
        <ele>28.02</ele>
        <time>2019-06-03T07:49:25Z</time>
      </trkpt>
      <trkpt lat="42.10192" lon="-8.63382">
        <ele>28.98</ele>
        <time>2019-06-03T07:49:43Z</time>
      </trkpt>
      <trkpt lat="42.10204" lon="-8.63363">
        <ele>30.42</ele>
        <time>2019-06-03T07:49:58Z</time>
      </trkpt>
      <trkpt lat="42.10215" lon="-8.63348">
        <ele>30.9</ele>
        <time>2019-06-03T07:50:13Z</time>
      </trkpt>
      <trkpt lat="42.10216" lon="-8.63347">
        <ele>31.38</ele>
        <time>2019-06-03T07:50:14Z</time>
      </trkpt>
      <trkpt lat="42.10224" lon="-8.63341">
        <ele>32.34</ele>
        <time>2019-06-03T07:50:30Z</time>
      </trkpt>
      <trkpt lat="42.10228" lon="-8.63333">
        <ele>33.3</ele>
        <time>2019-06-03T07:50:36Z</time>
      </trkpt>
      <trkpt lat="42.10231" lon="-8.63329">
        <ele>33.3</ele>
        <time>2019-06-03T07:50:40Z</time>
      </trkpt>
      <trkpt lat="42.10239" lon="-8.63315">
        <ele>34.74</ele>
        <time>2019-06-03T07:50:52Z</time>
      </trkpt>
      <trkpt lat="42.10248" lon="-8.63297">
        <ele>35.71</ele>
        <time>2019-06-03T07:51:08Z</time>
      </trkpt>
      <trkpt lat="42.1025" lon="-8.63295">
        <ele>36.19</ele>
        <time>2019-06-03T07:51:10Z</time>
      </trkpt>
      <trkpt lat="42.10253" lon="-8.63289">
        <ele>36.67</ele>
        <time>2019-06-03T07:51:15Z</time>
      </trkpt>
      <trkpt lat="42.10256" lon="-8.63287">
        <ele>36.67</ele>
        <time>2019-06-03T07:51:18Z</time>
      </trkpt>
      <trkpt lat="42.10267" lon="-8.63281">
        <ele>36.67</ele>
        <time>2019-06-03T07:51:27Z</time>
      </trkpt>
      <trkpt lat="42.10283" lon="-8.6327">
        <ele>36.19</ele>
        <time>2019-06-03T07:51:42Z</time>
      </trkpt>
      <trkpt lat="42.10287" lon="-8.63266">
        <ele>36.19</ele>
        <time>2019-06-03T07:51:46Z</time>
      </trkpt>
      <trkpt lat="42.10289" lon="-8.63263">
        <ele>36.19</ele>
        <time>2019-06-03T07:51:48Z</time>
      </trkpt>
      <trkpt lat="42.103" lon="-8.63251">
        <ele>35.23</ele>
        <time>2019-06-03T07:52:00Z</time>
      </trkpt>
      <trkpt lat="42.10314" lon="-8.63231">
        <ele>33.78</ele>
        <time>2019-06-03T07:52:15Z</time>
      </trkpt>
      <trkpt lat="42.10328" lon="-8.63218">
        <ele>32.34</ele>
        <time>2019-06-03T07:52:28Z</time>
      </trkpt>
      <trkpt lat="42.10349" lon="-8.63211">
        <ele>31.86</ele>
        <time>2019-06-03T07:52:45Z</time>
      </trkpt>
      <trkpt lat="42.10354" lon="-8.63209">
        <ele>31.86</ele>
        <time>2019-06-03T07:52:49Z</time>
      </trkpt>
      <trkpt lat="42.10357" lon="-8.6321">
        <ele>31.38</ele>
        <time>2019-06-03T07:52:51Z</time>
      </trkpt>
      <trkpt lat="42.10376" lon="-8.63201">
        <ele>31.38</ele>
        <time>2019-06-03T07:53:07Z</time>
      </trkpt>
      <trkpt lat="42.10389" lon="-8.63199">
        <ele>32.34</ele>
        <time>2019-06-03T07:53:22Z</time>
      </trkpt>
      <trkpt lat="42.104" lon="-8.63197">
        <ele>31.86</ele>
        <time>2019-06-03T07:53:35Z</time>
      </trkpt>
      <trkpt lat="42.10417" lon="-8.63195">
        <ele>32.34</ele>
        <time>2019-06-03T07:53:50Z</time>
      </trkpt>
      <trkpt lat="42.10432" lon="-8.63189">
        <ele>33.78</ele>
        <time>2019-06-03T07:54:05Z</time>
      </trkpt>
      <trkpt lat="42.10452" lon="-8.63174">
        <ele>32.34</ele>
        <time>2019-06-03T07:54:23Z</time>
      </trkpt>
      <trkpt lat="42.10468" lon="-8.63154">
        <ele>29.94</ele>
        <time>2019-06-03T07:54:39Z</time>
      </trkpt>
      <trkpt lat="42.10477" lon="-8.63135">
        <ele>27.05</ele>
        <time>2019-06-03T07:54:52Z</time>
      </trkpt>
      <trkpt lat="42.10484" lon="-8.63116">
        <ele>26.09</ele>
        <time>2019-06-03T07:55:05Z</time>
      </trkpt>
      <trkpt lat="42.10492" lon="-8.63109">
        <ele>25.61</ele>
        <time>2019-06-03T07:55:19Z</time>
      </trkpt>
      <trkpt lat="42.10499" lon="-8.63104">
        <ele>25.13</ele>
        <time>2019-06-03T07:55:26Z</time>
      </trkpt>
      <trkpt lat="42.10507" lon="-8.63098">
        <ele>25.13</ele>
        <time>2019-06-03T07:55:35Z</time>
      </trkpt>
      <trkpt lat="42.10528" lon="-8.63093">
        <ele>24.65</ele>
        <time>2019-06-03T07:55:50Z</time>
      </trkpt>
      <trkpt lat="42.10538" lon="-8.63094">
        <ele>25.13</ele>
        <time>2019-06-03T07:55:59Z</time>
      </trkpt>
      <trkpt lat="42.10544" lon="-8.63096">
        <ele>25.13</ele>
        <time>2019-06-03T07:56:04Z</time>
      </trkpt>
      <trkpt lat="42.10566" lon="-8.63097">
        <ele>25.13</ele>
        <time>2019-06-03T07:56:22Z</time>
      </trkpt>
      <trkpt lat="42.10579" lon="-8.631">
        <ele>25.13</ele>
        <time>2019-06-03T07:56:38Z</time>
      </trkpt>
      <trkpt lat="42.10583" lon="-8.63098">
        <ele>25.13</ele>
        <time>2019-06-03T07:56:44Z</time>
      </trkpt>
      <trkpt lat="42.10589" lon="-8.63096">
        <ele>24.65</ele>
        <time>2019-06-03T07:56:51Z</time>
      </trkpt>
      <trkpt lat="42.10605" lon="-8.63094">
        <ele>25.13</ele>
        <time>2019-06-03T07:57:06Z</time>
      </trkpt>
      <trkpt lat="42.1062" lon="-8.63092">
        <ele>25.61</ele>
        <time>2019-06-03T07:57:18Z</time>
      </trkpt>
      <trkpt lat="42.10632" lon="-8.63087">
        <ele>26.09</ele>
        <time>2019-06-03T07:57:32Z</time>
      </trkpt>
      <trkpt lat="42.10651" lon="-8.63071">
        <ele>27.05</ele>
        <time>2019-06-03T07:57:48Z</time>
      </trkpt>
      <trkpt lat="42.10667" lon="-8.63057">
        <ele>28.02</ele>
        <time>2019-06-03T07:58:03Z</time>
      </trkpt>
      <trkpt lat="42.10689" lon="-8.63045">
        <ele>28.98</ele>
        <time>2019-06-03T07:58:20Z</time>
      </trkpt>
      <trkpt lat="42.10702" lon="-8.63029">
        <ele>28.98</ele>
        <time>2019-06-03T07:58:36Z</time>
      </trkpt>
      <trkpt lat="42.10711" lon="-8.6301">
        <ele>30.42</ele>
        <time>2019-06-03T07:58:52Z</time>
      </trkpt>
      <trkpt lat="42.10713" lon="-8.62991">
        <ele>29.46</ele>
        <time>2019-06-03T07:59:09Z</time>
      </trkpt>
      <trkpt lat="42.10714" lon="-8.62965">
        <ele>29.46</ele>
        <time>2019-06-03T07:59:24Z</time>
      </trkpt>
      <trkpt lat="42.10716" lon="-8.62941">
        <ele>29.94</ele>
        <time>2019-06-03T07:59:38Z</time>
      </trkpt>
      <trkpt lat="42.10722" lon="-8.62915">
        <ele>29.46</ele>
        <time>2019-06-03T07:59:55Z</time>
      </trkpt>
      <trkpt lat="42.10729" lon="-8.62897">
        <ele>28.98</ele>
        <time>2019-06-03T08:00:07Z</time>
      </trkpt>
      <trkpt lat="42.10738" lon="-8.6288">
        <ele>29.46</ele>
        <time>2019-06-03T08:00:19Z</time>
      </trkpt>
      <trkpt lat="42.10741" lon="-8.62878">
        <ele>28.98</ele>
        <time>2019-06-03T08:00:21Z</time>
      </trkpt>
      <trkpt lat="42.10743" lon="-8.62877">
        <ele>28.98</ele>
        <time>2019-06-03T08:00:22Z</time>
      </trkpt>
      <trkpt lat="42.10747" lon="-8.62867">
        <ele>29.46</ele>
        <time>2019-06-03T08:00:28Z</time>
      </trkpt>
      <trkpt lat="42.1075" lon="-8.62861">
        <ele>28.98</ele>
        <time>2019-06-03T08:00:32Z</time>
      </trkpt>
      <trkpt lat="42.10751" lon="-8.6286">
        <ele>29.46</ele>
        <time>2019-06-03T08:00:33Z</time>
      </trkpt>
      <trkpt lat="42.10752" lon="-8.62859">
        <ele>28.98</ele>
        <time>2019-06-03T08:00:34Z</time>
      </trkpt>
      <trkpt lat="42.10753" lon="-8.62857">
        <ele>28.98</ele>
        <time>2019-06-03T08:00:35Z</time>
      </trkpt>
      <trkpt lat="42.10754" lon="-8.62856">
        <ele>28.98</ele>
        <time>2019-06-03T08:00:36Z</time>
      </trkpt>
      <trkpt lat="42.10755" lon="-8.62855">
        <ele>29.46</ele>
        <time>2019-06-03T08:00:37Z</time>
      </trkpt>
      <trkpt lat="42.10755" lon="-8.62854">
        <ele>28.98</ele>
        <time>2019-06-03T08:00:38Z</time>
      </trkpt>
      <trkpt lat="42.10756" lon="-8.62852">
        <ele>28.98</ele>
        <time>2019-06-03T08:00:39Z</time>
      </trkpt>
      <trkpt lat="42.10756" lon="-8.6285">
        <ele>29.46</ele>
        <time>2019-06-03T08:00:40Z</time>
      </trkpt>
      <trkpt lat="42.10757" lon="-8.62847">
        <ele>29.46</ele>
        <time>2019-06-03T08:00:42Z</time>
      </trkpt>
      <trkpt lat="42.10758" lon="-8.62843">
        <ele>28.98</ele>
        <time>2019-06-03T08:00:45Z</time>
      </trkpt>
      <trkpt lat="42.10759" lon="-8.62842">
        <ele>28.98</ele>
        <time>2019-06-03T08:00:46Z</time>
      </trkpt>
      <trkpt lat="42.10767" lon="-8.62827">
        <ele>28.5</ele>
        <time>2019-06-03T08:01:00Z</time>
      </trkpt>
      <trkpt lat="42.10778" lon="-8.6282">
        <ele>28.02</ele>
        <time>2019-06-03T08:01:09Z</time>
      </trkpt>
      <trkpt lat="42.10788" lon="-8.62816">
        <ele>28.5</ele>
        <time>2019-06-03T08:01:23Z</time>
      </trkpt>
      <trkpt lat="42.10803" lon="-8.62811">
        <ele>28.02</ele>
        <time>2019-06-03T08:01:37Z</time>
      </trkpt>
      <trkpt lat="42.10819" lon="-8.62813">
        <ele>27.53</ele>
        <time>2019-06-03T08:01:52Z</time>
      </trkpt>
      <trkpt lat="42.10843" lon="-8.62814">
        <ele>27.05</ele>
        <time>2019-06-03T08:02:10Z</time>
      </trkpt>
      <trkpt lat="42.10851" lon="-8.62816">
        <ele>25.61</ele>
        <time>2019-06-03T08:02:17Z</time>
      </trkpt>
      <trkpt lat="42.10858" lon="-8.62811">
        <ele>25.13</ele>
        <time>2019-06-03T08:02:24Z</time>
      </trkpt>
      <trkpt lat="42.10858" lon="-8.62808">
        <ele>25.13</ele>
        <time>2019-06-03T08:02:26Z</time>
      </trkpt>
      <trkpt lat="42.10861" lon="-8.62792">
        <ele>24.65</ele>
        <time>2019-06-03T08:02:38Z</time>
      </trkpt>
      <trkpt lat="42.10864" lon="-8.62768">
        <ele>25.13</ele>
        <time>2019-06-03T08:02:52Z</time>
      </trkpt>
      <trkpt lat="42.1087" lon="-8.62741">
        <ele>24.65</ele>
        <time>2019-06-03T08:03:08Z</time>
      </trkpt>
      <trkpt lat="42.10871" lon="-8.62727">
        <ele>25.13</ele>
        <time>2019-06-03T08:03:16Z</time>
      </trkpt>
      <trkpt lat="42.1087" lon="-8.62711">
        <ele>24.65</ele>
        <time>2019-06-03T08:03:30Z</time>
      </trkpt>
      <trkpt lat="42.10867" lon="-8.62692">
        <ele>24.17</ele>
        <time>2019-06-03T08:03:43Z</time>
      </trkpt>
      <trkpt lat="42.10871" lon="-8.62671">
        <ele>24.65</ele>
        <time>2019-06-03T08:03:57Z</time>
      </trkpt>
      <trkpt lat="42.10874" lon="-8.62651">
        <ele>24.65</ele>
        <time>2019-06-03T08:04:10Z</time>
      </trkpt>
      <trkpt lat="42.10875" lon="-8.62622">
        <ele>24.17</ele>
        <time>2019-06-03T08:04:25Z</time>
      </trkpt>
      <trkpt lat="42.10877" lon="-8.62601">
        <ele>23.69</ele>
        <time>2019-06-03T08:04:39Z</time>
      </trkpt>
      <trkpt lat="42.10877" lon="-8.6258">
        <ele>25.13</ele>
        <time>2019-06-03T08:04:52Z</time>
      </trkpt>
      <trkpt lat="42.10877" lon="-8.62571">
        <ele>25.13</ele>
        <time>2019-06-03T08:04:57Z</time>
      </trkpt>
      <trkpt lat="42.10877" lon="-8.62569">
        <ele>24.17</ele>
        <time>2019-06-03T08:04:58Z</time>
      </trkpt>
      <trkpt lat="42.10876" lon="-8.62567">
        <ele>25.13</ele>
        <time>2019-06-03T08:04:59Z</time>
      </trkpt>
      <trkpt lat="42.1088" lon="-8.62554">
        <ele>24.65</ele>
        <time>2019-06-03T08:05:12Z</time>
      </trkpt>
      <trkpt lat="42.10881" lon="-8.62556">
        <ele>25.13</ele>
        <time>2019-06-03T08:05:16Z</time>
      </trkpt>
      <trkpt lat="42.10882" lon="-8.62558">
        <ele>25.13</ele>
        <time>2019-06-03T08:05:17Z</time>
      </trkpt>
      <trkpt lat="42.10882" lon="-8.62559">
        <ele>24.65</ele>
        <time>2019-06-03T08:05:18Z</time>
      </trkpt>
      <trkpt lat="42.10887" lon="-8.62559">
        <ele>24.65</ele>
        <time>2019-06-03T08:05:29Z</time>
      </trkpt>
      <trkpt lat="42.10901" lon="-8.62559">
        <ele>24.17</ele>
        <time>2019-06-03T08:05:42Z</time>
      </trkpt>
      <trkpt lat="42.10909" lon="-8.62561">
        <ele>23.69</ele>
        <time>2019-06-03T08:05:48Z</time>
      </trkpt>
      <trkpt lat="42.10927" lon="-8.62565">
        <ele>23.69</ele>
        <time>2019-06-03T08:06:01Z</time>
      </trkpt>
      <trkpt lat="42.10948" lon="-8.62565">
        <ele>23.21</ele>
        <time>2019-06-03T08:06:17Z</time>
      </trkpt>
      <trkpt lat="42.10962" lon="-8.62567">
        <ele>22.73</ele>
        <time>2019-06-03T08:06:29Z</time>
      </trkpt>
      <trkpt lat="42.10963" lon="-8.62568">
        <ele>22.25</ele>
        <time>2019-06-03T08:06:30Z</time>
      </trkpt>
      <trkpt lat="42.10964" lon="-8.62568">
        <ele>22.73</ele>
        <time>2019-06-03T08:06:31Z</time>
      </trkpt>
      <trkpt lat="42.10965" lon="-8.62569">
        <ele>22.73</ele>
        <time>2019-06-03T08:06:32Z</time>
      </trkpt>
      <trkpt lat="42.10987" lon="-8.62569">
        <ele>21.77</ele>
        <time>2019-06-03T08:06:50Z</time>
      </trkpt>
      <trkpt lat="42.11011" lon="-8.62567">
        <ele>21.29</ele>
        <time>2019-06-03T08:07:07Z</time>
      </trkpt>
      <trkpt lat="42.11033" lon="-8.62567">
        <ele>20.32</ele>
        <time>2019-06-03T08:07:23Z</time>
      </trkpt>
      <trkpt lat="42.11038" lon="-8.62566">
        <ele>20.81</ele>
        <time>2019-06-03T08:07:31Z</time>
      </trkpt>
      <trkpt lat="42.11049" lon="-8.62568">
        <ele>19.84</ele>
        <time>2019-06-03T08:07:43Z</time>
      </trkpt>
      <trkpt lat="42.11067" lon="-8.62569">
        <ele>19.36</ele>
        <time>2019-06-03T08:07:59Z</time>
      </trkpt>
      <trkpt lat="42.1109" lon="-8.62569">
        <ele>18.4</ele>
        <time>2019-06-03T08:08:15Z</time>
      </trkpt>
      <trkpt lat="42.11105" lon="-8.62571">
        <ele>17.92</ele>
        <time>2019-06-03T08:08:28Z</time>
      </trkpt>
      <trkpt lat="42.11123" lon="-8.62572">
        <ele>17.44</ele>
        <time>2019-06-03T08:08:42Z</time>
      </trkpt>
      <trkpt lat="42.11134" lon="-8.62574">
        <ele>17.44</ele>
        <time>2019-06-03T08:08:52Z</time>
      </trkpt>
      <trkpt lat="42.11136" lon="-8.62573">
        <ele>16.96</ele>
        <time>2019-06-03T08:08:53Z</time>
      </trkpt>
      <trkpt lat="42.11137" lon="-8.62573">
        <ele>16.96</ele>
        <time>2019-06-03T08:08:54Z</time>
      </trkpt>
      <trkpt lat="42.11139" lon="-8.62572">
        <ele>17.44</ele>
        <time>2019-06-03T08:08:55Z</time>
      </trkpt>
      <trkpt lat="42.11152" lon="-8.62577">
        <ele>16.96</ele>
        <time>2019-06-03T08:09:07Z</time>
      </trkpt>
      <trkpt lat="42.11168" lon="-8.62578">
        <ele>16</ele>
        <time>2019-06-03T08:09:22Z</time>
      </trkpt>
      <trkpt lat="42.11186" lon="-8.62581">
        <ele>16.48</ele>
        <time>2019-06-03T08:09:39Z</time>
      </trkpt>
      <trkpt lat="42.11205" lon="-8.62583">
        <ele>16.48</ele>
        <time>2019-06-03T08:09:53Z</time>
      </trkpt>
      <trkpt lat="42.11207" lon="-8.62583">
        <ele>16.48</ele>
        <time>2019-06-03T08:09:55Z</time>
      </trkpt>
      <trkpt lat="42.11209" lon="-8.62583">
        <ele>16.48</ele>
        <time>2019-06-03T08:09:56Z</time>
      </trkpt>
      <trkpt lat="42.11227" lon="-8.6258">
        <ele>16.48</ele>
        <time>2019-06-03T08:10:10Z</time>
      </trkpt>
      <trkpt lat="42.11229" lon="-8.62581">
        <ele>16.48</ele>
        <time>2019-06-03T08:10:11Z</time>
      </trkpt>
      <trkpt lat="42.11231" lon="-8.62581">
        <ele>16.48</ele>
        <time>2019-06-03T08:10:12Z</time>
      </trkpt>
      <trkpt lat="42.11244" lon="-8.62586">
        <ele>16.48</ele>
        <time>2019-06-03T08:10:27Z</time>
      </trkpt>
      <trkpt lat="42.11255" lon="-8.62585">
        <ele>16</ele>
        <time>2019-06-03T08:10:47Z</time>
      </trkpt>
      <trkpt lat="42.11275" lon="-8.62583">
        <ele>16</ele>
        <time>2019-06-03T08:11:02Z</time>
      </trkpt>
      <trkpt lat="42.11289" lon="-8.62582">
        <ele>15.52</ele>
        <time>2019-06-03T08:11:16Z</time>
      </trkpt>
      <trkpt lat="42.11306" lon="-8.62584">
        <ele>15.52</ele>
        <time>2019-06-03T08:11:30Z</time>
      </trkpt>
      <trkpt lat="42.11312" lon="-8.62586">
        <ele>15.52</ele>
        <time>2019-06-03T08:11:36Z</time>
      </trkpt>
      <trkpt lat="42.11333" lon="-8.62589">
        <ele>15.04</ele>
        <time>2019-06-03T08:11:52Z</time>
      </trkpt>
      <trkpt lat="42.11351" lon="-8.62591">
        <ele>15.52</ele>
        <time>2019-06-03T08:12:08Z</time>
      </trkpt>
      <trkpt lat="42.11365" lon="-8.62591">
        <ele>15.04</ele>
        <time>2019-06-03T08:12:22Z</time>
      </trkpt>
      <trkpt lat="42.11367" lon="-8.62591">
        <ele>16</ele>
        <time>2019-06-03T08:12:23Z</time>
      </trkpt>
      <trkpt lat="42.11368" lon="-8.62591">
        <ele>15.04</ele>
        <time>2019-06-03T08:12:24Z</time>
      </trkpt>
      <trkpt lat="42.11392" lon="-8.6259">
        <ele>15.52</ele>
        <time>2019-06-03T08:12:39Z</time>
      </trkpt>
      <trkpt lat="42.11413" lon="-8.62586">
        <ele>15.04</ele>
        <time>2019-06-03T08:12:56Z</time>
      </trkpt>
      <trkpt lat="42.1143" lon="-8.62584">
        <ele>15.04</ele>
        <time>2019-06-03T08:13:09Z</time>
      </trkpt>
      <trkpt lat="42.11432" lon="-8.62584">
        <ele>14.56</ele>
        <time>2019-06-03T08:13:10Z</time>
      </trkpt>
      <trkpt lat="42.11433" lon="-8.62585">
        <ele>15.04</ele>
        <time>2019-06-03T08:13:11Z</time>
      </trkpt>
      <trkpt lat="42.11435" lon="-8.62585">
        <ele>16</ele>
        <time>2019-06-03T08:13:12Z</time>
      </trkpt>
      <trkpt lat="42.11436" lon="-8.62585">
        <ele>16</ele>
        <time>2019-06-03T08:13:13Z</time>
      </trkpt>
      <trkpt lat="42.11456" lon="-8.6259">
        <ele>15.04</ele>
        <time>2019-06-03T08:13:27Z</time>
      </trkpt>
      <trkpt lat="42.11473" lon="-8.62592">
        <ele>15.04</ele>
        <time>2019-06-03T08:13:42Z</time>
      </trkpt>
      <trkpt lat="42.11484" lon="-8.62591">
        <ele>14.56</ele>
        <time>2019-06-03T08:13:56Z</time>
      </trkpt>
      <trkpt lat="42.11502" lon="-8.62589">
        <ele>14.56</ele>
        <time>2019-06-03T08:14:11Z</time>
      </trkpt>
      <trkpt lat="42.11515" lon="-8.62592">
        <ele>15.04</ele>
        <time>2019-06-03T08:14:23Z</time>
      </trkpt>
      <trkpt lat="42.11525" lon="-8.62592">
        <ele>15.04</ele>
        <time>2019-06-03T08:14:36Z</time>
      </trkpt>
      <trkpt lat="42.11535" lon="-8.62591">
        <ele>15.04</ele>
        <time>2019-06-03T08:14:47Z</time>
      </trkpt>
      <trkpt lat="42.11551" lon="-8.62593">
        <ele>15.04</ele>
        <time>2019-06-03T08:15:01Z</time>
      </trkpt>
      <trkpt lat="42.11564" lon="-8.62595">
        <ele>15.04</ele>
        <time>2019-06-03T08:15:14Z</time>
      </trkpt>
      <trkpt lat="42.11588" lon="-8.62596">
        <ele>14.56</ele>
        <time>2019-06-03T08:15:32Z</time>
      </trkpt>
      <trkpt lat="42.11607" lon="-8.62597">
        <ele>14.56</ele>
        <time>2019-06-03T08:15:47Z</time>
      </trkpt>
      <trkpt lat="42.1163" lon="-8.62599">
        <ele>15.04</ele>
        <time>2019-06-03T08:16:06Z</time>
      </trkpt>
      <trkpt lat="42.11653" lon="-8.62599">
        <ele>15.04</ele>
        <time>2019-06-03T08:16:24Z</time>
      </trkpt>
      <trkpt lat="42.11674" lon="-8.62601">
        <ele>15.04</ele>
        <time>2019-06-03T08:16:40Z</time>
      </trkpt>
      <trkpt lat="42.11697" lon="-8.62603">
        <ele>15.04</ele>
        <time>2019-06-03T08:16:59Z</time>
      </trkpt>
      <trkpt lat="42.11718" lon="-8.62603">
        <ele>15.04</ele>
        <time>2019-06-03T08:17:15Z</time>
      </trkpt>
      <trkpt lat="42.11736" lon="-8.62604">
        <ele>15.04</ele>
        <time>2019-06-03T08:17:33Z</time>
      </trkpt>
      <trkpt lat="42.11754" lon="-8.62605">
        <ele>15.04</ele>
        <time>2019-06-03T08:17:48Z</time>
      </trkpt>
      <trkpt lat="42.11773" lon="-8.62606">
        <ele>15.04</ele>
        <time>2019-06-03T08:18:03Z</time>
      </trkpt>
      <trkpt lat="42.11796" lon="-8.62608">
        <ele>14.56</ele>
        <time>2019-06-03T08:18:21Z</time>
      </trkpt>
      <trkpt lat="42.11807" lon="-8.6261">
        <ele>14.56</ele>
        <time>2019-06-03T08:18:36Z</time>
      </trkpt>
      <trkpt lat="42.11824" lon="-8.6261">
        <ele>14.56</ele>
        <time>2019-06-03T08:18:51Z</time>
      </trkpt>
      <trkpt lat="42.11845" lon="-8.6261">
        <ele>14.56</ele>
        <time>2019-06-03T08:19:07Z</time>
      </trkpt>
      <trkpt lat="42.11867" lon="-8.62611">
        <ele>14.56</ele>
        <time>2019-06-03T08:19:23Z</time>
      </trkpt>
      <trkpt lat="42.11882" lon="-8.62611">
        <ele>14.56</ele>
        <time>2019-06-03T08:19:37Z</time>
      </trkpt>
      <trkpt lat="42.11906" lon="-8.62612">
        <ele>14.56</ele>
        <time>2019-06-03T08:19:55Z</time>
      </trkpt>
      <trkpt lat="42.11929" lon="-8.62613">
        <ele>14.08</ele>
        <time>2019-06-03T08:20:13Z</time>
      </trkpt>
      <trkpt lat="42.11952" lon="-8.62615">
        <ele>14.08</ele>
        <time>2019-06-03T08:20:31Z</time>
      </trkpt>
      <trkpt lat="42.11965" lon="-8.62616">
        <ele>14.56</ele>
        <time>2019-06-03T08:20:45Z</time>
      </trkpt>
      <trkpt lat="42.11984" lon="-8.62618">
        <ele>14.56</ele>
        <time>2019-06-03T08:21:01Z</time>
      </trkpt>
      <trkpt lat="42.12005" lon="-8.62617">
        <ele>14.56</ele>
        <time>2019-06-03T08:21:16Z</time>
      </trkpt>
      <trkpt lat="42.12025" lon="-8.62617">
        <ele>14.56</ele>
        <time>2019-06-03T08:21:32Z</time>
      </trkpt>
      <trkpt lat="42.12047" lon="-8.62619">
        <ele>14.56</ele>
        <time>2019-06-03T08:21:50Z</time>
      </trkpt>
      <trkpt lat="42.12069" lon="-8.6262">
        <ele>14.56</ele>
        <time>2019-06-03T08:22:07Z</time>
      </trkpt>
      <trkpt lat="42.12088" lon="-8.62621">
        <ele>14.56</ele>
        <time>2019-06-03T08:22:23Z</time>
      </trkpt>
      <trkpt lat="42.12112" lon="-8.62623">
        <ele>15.04</ele>
        <time>2019-06-03T08:22:41Z</time>
      </trkpt>
      <trkpt lat="42.12131" lon="-8.62624">
        <ele>15.52</ele>
        <time>2019-06-03T08:22:57Z</time>
      </trkpt>
      <trkpt lat="42.12152" lon="-8.62625">
        <ele>15.04</ele>
        <time>2019-06-03T08:23:14Z</time>
      </trkpt>
      <trkpt lat="42.12168" lon="-8.62632">
        <ele>14.56</ele>
        <time>2019-06-03T08:23:28Z</time>
      </trkpt>
      <trkpt lat="42.12186" lon="-8.62635">
        <ele>15.04</ele>
        <time>2019-06-03T08:23:44Z</time>
      </trkpt>
      <trkpt lat="42.12201" lon="-8.62645">
        <ele>15.04</ele>
        <time>2019-06-03T08:24:00Z</time>
      </trkpt>
      <trkpt lat="42.12221" lon="-8.62648">
        <ele>15.52</ele>
        <time>2019-06-03T08:24:17Z</time>
      </trkpt>
      <trkpt lat="42.12248" lon="-8.62636">
        <ele>15.04</ele>
        <time>2019-06-03T08:24:34Z</time>
      </trkpt>
      <trkpt lat="42.12264" lon="-8.62633">
        <ele>15.04</ele>
        <time>2019-06-03T08:24:48Z</time>
      </trkpt>
      <trkpt lat="42.12273" lon="-8.62632">
        <ele>16</ele>
        <time>2019-06-03T08:25:01Z</time>
      </trkpt>
      <trkpt lat="42.1228" lon="-8.62633">
        <ele>15.04</ele>
        <time>2019-06-03T08:25:14Z</time>
      </trkpt>
      <trkpt lat="42.12285" lon="-8.62632">
        <ele>16.48</ele>
        <time>2019-06-03T08:25:28Z</time>
      </trkpt>
      <trkpt lat="42.1229" lon="-8.62629">
        <ele>16</ele>
        <time>2019-06-03T08:26:03Z</time>
      </trkpt>
      <trkpt lat="42.1229" lon="-8.62641">
        <ele>16.48</ele>
        <time>2019-06-03T08:26:26Z</time>
      </trkpt>
      <trkpt lat="42.123" lon="-8.62643">
        <ele>16</ele>
        <time>2019-06-03T08:26:41Z</time>
      </trkpt>
      <trkpt lat="42.12314" lon="-8.62639">
        <ele>16.48</ele>
        <time>2019-06-03T08:26:54Z</time>
      </trkpt>
      <trkpt lat="42.12329" lon="-8.62642">
        <ele>16.48</ele>
        <time>2019-06-03T08:27:08Z</time>
      </trkpt>
      <trkpt lat="42.12347" lon="-8.62643">
        <ele>16.96</ele>
        <time>2019-06-03T08:27:23Z</time>
      </trkpt>
      <trkpt lat="42.12366" lon="-8.62638">
        <ele>16.48</ele>
        <time>2019-06-03T08:27:37Z</time>
      </trkpt>
      <trkpt lat="42.12383" lon="-8.62638">
        <ele>16.48</ele>
        <time>2019-06-03T08:27:52Z</time>
      </trkpt>
      <trkpt lat="42.12403" lon="-8.62637">
        <ele>16.48</ele>
        <time>2019-06-03T08:28:08Z</time>
      </trkpt>
      <trkpt lat="42.12422" lon="-8.62638">
        <ele>16.48</ele>
        <time>2019-06-03T08:28:24Z</time>
      </trkpt>
      <trkpt lat="42.12431" lon="-8.62636">
        <ele>16.48</ele>
        <time>2019-06-03T08:28:32Z</time>
      </trkpt>
      <trkpt lat="42.12438" lon="-8.62638">
        <ele>16</ele>
        <time>2019-06-03T08:28:37Z</time>
      </trkpt>
      <trkpt lat="42.1246" lon="-8.62641">
        <ele>16.48</ele>
        <time>2019-06-03T08:28:53Z</time>
      </trkpt>
      <trkpt lat="42.12464" lon="-8.62643">
        <ele>16.48</ele>
        <time>2019-06-03T08:28:58Z</time>
      </trkpt>
      <trkpt lat="42.12466" lon="-8.62642">
        <ele>16</ele>
        <time>2019-06-03T08:29:00Z</time>
      </trkpt>
      <trkpt lat="42.12477" lon="-8.62641">
        <ele>16.96</ele>
        <time>2019-06-03T08:29:14Z</time>
      </trkpt>
      <trkpt lat="42.12493" lon="-8.62643">
        <ele>16.48</ele>
        <time>2019-06-03T08:29:27Z</time>
      </trkpt>
      <trkpt lat="42.1251" lon="-8.62646">
        <ele>16.48</ele>
        <time>2019-06-03T08:29:40Z</time>
      </trkpt>
      <trkpt lat="42.12512" lon="-8.62646">
        <ele>16.96</ele>
        <time>2019-06-03T08:29:42Z</time>
      </trkpt>
      <trkpt lat="42.12514" lon="-8.62646">
        <ele>16.96</ele>
        <time>2019-06-03T08:29:43Z</time>
      </trkpt>
      <trkpt lat="42.12515" lon="-8.62646">
        <ele>16.96</ele>
        <time>2019-06-03T08:29:44Z</time>
      </trkpt>
      <trkpt lat="42.12532" lon="-8.62644">
        <ele>16</ele>
        <time>2019-06-03T08:30:00Z</time>
      </trkpt>
      <trkpt lat="42.12551" lon="-8.62648">
        <ele>16.96</ele>
        <time>2019-06-03T08:30:15Z</time>
      </trkpt>
      <trkpt lat="42.12566" lon="-8.62658">
        <ele>17.44</ele>
        <time>2019-06-03T08:30:28Z</time>
      </trkpt>
      <trkpt lat="42.12573" lon="-8.62658">
        <ele>16.96</ele>
        <time>2019-06-03T08:30:34Z</time>
      </trkpt>
      <trkpt lat="42.12593" lon="-8.62661">
        <ele>17.44</ele>
        <time>2019-06-03T08:30:50Z</time>
      </trkpt>
      <trkpt lat="42.12609" lon="-8.62658">
        <ele>17.92</ele>
        <time>2019-06-03T08:31:02Z</time>
      </trkpt>
      <trkpt lat="42.12623" lon="-8.62659">
        <ele>17.44</ele>
        <time>2019-06-03T08:31:16Z</time>
      </trkpt>
      <trkpt lat="42.12634" lon="-8.62661">
        <ele>17.92</ele>
        <time>2019-06-03T08:31:28Z</time>
      </trkpt>
      <trkpt lat="42.1265" lon="-8.62663">
        <ele>17.44</ele>
        <time>2019-06-03T08:31:44Z</time>
      </trkpt>
      <trkpt lat="42.12665" lon="-8.62668">
        <ele>17.92</ele>
        <time>2019-06-03T08:31:59Z</time>
      </trkpt>
      <trkpt lat="42.12683" lon="-8.62676">
        <ele>17.92</ele>
        <time>2019-06-03T08:32:12Z</time>
      </trkpt>
      <trkpt lat="42.12699" lon="-8.62684">
        <ele>17.92</ele>
        <time>2019-06-03T08:32:25Z</time>
      </trkpt>
      <trkpt lat="42.12719" lon="-8.62684">
        <ele>18.4</ele>
        <time>2019-06-03T08:32:40Z</time>
      </trkpt>
      <trkpt lat="42.12723" lon="-8.62684">
        <ele>18.4</ele>
        <time>2019-06-03T08:32:44Z</time>
      </trkpt>
      <trkpt lat="42.12735" lon="-8.62684">
        <ele>18.88</ele>
        <time>2019-06-03T08:32:57Z</time>
      </trkpt>
      <trkpt lat="42.12748" lon="-8.6269">
        <ele>19.36</ele>
        <time>2019-06-03T08:33:10Z</time>
      </trkpt>
      <trkpt lat="42.12765" lon="-8.62691">
        <ele>19.84</ele>
        <time>2019-06-03T08:33:25Z</time>
      </trkpt>
      <trkpt lat="42.12767" lon="-8.62691">
        <ele>19.36</ele>
        <time>2019-06-03T08:33:27Z</time>
      </trkpt>
      <trkpt lat="42.12794" lon="-8.62674">
        <ele>19.84</ele>
        <time>2019-06-03T08:33:43Z</time>
      </trkpt>
      <trkpt lat="42.12806" lon="-8.62684">
        <ele>20.81</ele>
        <time>2019-06-03T08:34:00Z</time>
      </trkpt>
      <trkpt lat="42.12831" lon="-8.62673">
        <ele>20.81</ele>
        <time>2019-06-03T08:34:16Z</time>
      </trkpt>
      <trkpt lat="42.12857" lon="-8.62667">
        <ele>21.29</ele>
        <time>2019-06-03T08:34:35Z</time>
      </trkpt>
      <trkpt lat="42.12875" lon="-8.62671">
        <ele>21.77</ele>
        <time>2019-06-03T08:34:52Z</time>
      </trkpt>
      <trkpt lat="42.12885" lon="-8.62683">
        <ele>22.73</ele>
        <time>2019-06-03T08:35:07Z</time>
      </trkpt>
      <trkpt lat="42.12886" lon="-8.62684">
        <ele>23.21</ele>
        <time>2019-06-03T08:35:08Z</time>
      </trkpt>
      <trkpt lat="42.12905" lon="-8.62687">
        <ele>23.21</ele>
        <time>2019-06-03T08:35:25Z</time>
      </trkpt>
      <trkpt lat="42.12925" lon="-8.62695">
        <ele>24.17</ele>
        <time>2019-06-03T08:35:40Z</time>
      </trkpt>
      <trkpt lat="42.12945" lon="-8.62703">
        <ele>25.13</ele>
        <time>2019-06-03T08:35:56Z</time>
      </trkpt>
      <trkpt lat="42.12959" lon="-8.62707">
        <ele>25.13</ele>
        <time>2019-06-03T08:36:09Z</time>
      </trkpt>
      <trkpt lat="42.12975" lon="-8.62712">
        <ele>26.57</ele>
        <time>2019-06-03T08:36:24Z</time>
      </trkpt>
      <trkpt lat="42.12999" lon="-8.62706">
        <ele>27.05</ele>
        <time>2019-06-03T08:36:42Z</time>
      </trkpt>
      <trkpt lat="42.13018" lon="-8.62707">
        <ele>28.02</ele>
        <time>2019-06-03T08:36:57Z</time>
      </trkpt>
      <trkpt lat="42.13043" lon="-8.62706">
        <ele>28.98</ele>
        <time>2019-06-03T08:37:17Z</time>
      </trkpt>
      <trkpt lat="42.13046" lon="-8.62707">
        <ele>28.98</ele>
        <time>2019-06-03T08:37:29Z</time>
      </trkpt>
      <trkpt lat="42.13055" lon="-8.6271">
        <ele>28.98</ele>
        <time>2019-06-03T08:37:48Z</time>
      </trkpt>
      <trkpt lat="42.13072" lon="-8.6271">
        <ele>29.94</ele>
        <time>2019-06-03T08:38:04Z</time>
      </trkpt>
      <trkpt lat="42.13091" lon="-8.62707">
        <ele>30.42</ele>
        <time>2019-06-03T08:38:20Z</time>
      </trkpt>
      <trkpt lat="42.13117" lon="-8.62696">
        <ele>30.9</ele>
        <time>2019-06-03T08:38:38Z</time>
      </trkpt>
      <trkpt lat="42.13135" lon="-8.62693">
        <ele>31.38</ele>
        <time>2019-06-03T08:38:52Z</time>
      </trkpt>
      <trkpt lat="42.1316" lon="-8.62682">
        <ele>31.86</ele>
        <time>2019-06-03T08:39:05Z</time>
      </trkpt>
      <trkpt lat="42.13178" lon="-8.62683">
        <ele>31.86</ele>
        <time>2019-06-03T08:39:20Z</time>
      </trkpt>
      <trkpt lat="42.132" lon="-8.6268">
        <ele>33.3</ele>
        <time>2019-06-03T08:39:37Z</time>
      </trkpt>
      <trkpt lat="42.13223" lon="-8.62678">
        <ele>32.82</ele>
        <time>2019-06-03T08:39:54Z</time>
      </trkpt>
      <trkpt lat="42.13235" lon="-8.62665">
        <ele>33.3</ele>
        <time>2019-06-03T08:40:09Z</time>
      </trkpt>
      <trkpt lat="42.13243" lon="-8.62644">
        <ele>33.78</ele>
        <time>2019-06-03T08:40:25Z</time>
      </trkpt>
      <trkpt lat="42.13247" lon="-8.62622">
        <ele>34.74</ele>
        <time>2019-06-03T08:40:40Z</time>
      </trkpt>
      <trkpt lat="42.13248" lon="-8.62618">
        <ele>35.23</ele>
        <time>2019-06-03T08:41:04Z</time>
      </trkpt>
      <trkpt lat="42.13247" lon="-8.62614">
        <ele>34.26</ele>
        <time>2019-06-03T08:41:22Z</time>
      </trkpt>
      <trkpt lat="42.13249" lon="-8.62606">
        <ele>34.26</ele>
        <time>2019-06-03T08:41:27Z</time>
      </trkpt>
      <trkpt lat="42.13251" lon="-8.62602">
        <ele>34.26</ele>
        <time>2019-06-03T08:41:38Z</time>
      </trkpt>
      <trkpt lat="42.13254" lon="-8.62599">
        <ele>34.26</ele>
        <time>2019-06-03T08:41:55Z</time>
      </trkpt>
      <trkpt lat="42.13254" lon="-8.62599">
        <ele>34.26</ele>
        <time>2019-06-03T08:42:10Z</time>
      </trkpt>
      <trkpt lat="42.13256" lon="-8.62599">
        <ele>33.78</ele>
        <time>2019-06-03T08:42:12Z</time>
      </trkpt>
      <trkpt lat="42.13261" lon="-8.62601">
        <ele>33.3</ele>
        <time>2019-06-03T08:42:26Z</time>
      </trkpt>
      <trkpt lat="42.13264" lon="-8.62601">
        <ele>33.78</ele>
        <time>2019-06-03T08:42:55Z</time>
      </trkpt>
      <trkpt lat="42.13263" lon="-8.62596">
        <ele>33.78</ele>
        <time>2019-06-03T08:43:14Z</time>
      </trkpt>
      <trkpt lat="42.13276" lon="-8.62584">
        <ele>33.3</ele>
        <time>2019-06-03T08:43:29Z</time>
      </trkpt>
      <trkpt lat="42.13278" lon="-8.62583">
        <ele>33.78</ele>
        <time>2019-06-03T08:43:32Z</time>
      </trkpt>
      <trkpt lat="42.13291" lon="-8.62574">
        <ele>33.3</ele>
        <time>2019-06-03T08:43:46Z</time>
      </trkpt>
      <trkpt lat="42.13305" lon="-8.62566">
        <ele>33.3</ele>
        <time>2019-06-03T08:43:58Z</time>
      </trkpt>
      <trkpt lat="42.13322" lon="-8.62556">
        <ele>33.3</ele>
        <time>2019-06-03T08:44:13Z</time>
      </trkpt>
      <trkpt lat="42.13331" lon="-8.6255">
        <ele>33.3</ele>
        <time>2019-06-03T08:44:21Z</time>
      </trkpt>
      <trkpt lat="42.13334" lon="-8.62549">
        <ele>33.78</ele>
        <time>2019-06-03T08:44:24Z</time>
      </trkpt>
      <trkpt lat="42.1334" lon="-8.62546">
        <ele>32.34</ele>
        <time>2019-06-03T08:44:31Z</time>
      </trkpt>
      <trkpt lat="42.13358" lon="-8.62532">
        <ele>33.3</ele>
        <time>2019-06-03T08:44:46Z</time>
      </trkpt>
      <trkpt lat="42.13376" lon="-8.62522">
        <ele>32.82</ele>
        <time>2019-06-03T08:45:00Z</time>
      </trkpt>
      <trkpt lat="42.13394" lon="-8.62514">
        <ele>32.82</ele>
        <time>2019-06-03T08:45:15Z</time>
      </trkpt>
      <trkpt lat="42.13408" lon="-8.62505">
        <ele>32.34</ele>
        <time>2019-06-03T08:45:28Z</time>
      </trkpt>
      <trkpt lat="42.1343" lon="-8.62495">
        <ele>31.38</ele>
        <time>2019-06-03T08:45:45Z</time>
      </trkpt>
      <trkpt lat="42.13449" lon="-8.62486">
        <ele>30.9</ele>
        <time>2019-06-03T08:46:02Z</time>
      </trkpt>
      <trkpt lat="42.13475" lon="-8.62473">
        <ele>30.42</ele>
        <time>2019-06-03T08:46:18Z</time>
      </trkpt>
      <trkpt lat="42.13493" lon="-8.62465">
        <ele>30.42</ele>
        <time>2019-06-03T08:46:33Z</time>
      </trkpt>
      <trkpt lat="42.13514" lon="-8.62453">
        <ele>29.46</ele>
        <time>2019-06-03T08:46:52Z</time>
      </trkpt>
      <trkpt lat="42.13533" lon="-8.62444">
        <ele>28.98</ele>
        <time>2019-06-03T08:47:08Z</time>
      </trkpt>
      <trkpt lat="42.13552" lon="-8.62435">
        <ele>28.98</ele>
        <time>2019-06-03T08:47:25Z</time>
      </trkpt>
      <trkpt lat="42.13571" lon="-8.62425">
        <ele>28.02</ele>
        <time>2019-06-03T08:47:41Z</time>
      </trkpt>
      <trkpt lat="42.13588" lon="-8.62416">
        <ele>28.5</ele>
        <time>2019-06-03T08:47:57Z</time>
      </trkpt>
      <trkpt lat="42.13606" lon="-8.62408">
        <ele>28.5</ele>
        <time>2019-06-03T08:48:12Z</time>
      </trkpt>
      <trkpt lat="42.13621" lon="-8.624">
        <ele>28.5</ele>
        <time>2019-06-03T08:48:27Z</time>
      </trkpt>
      <trkpt lat="42.13641" lon="-8.62394">
        <ele>28.02</ele>
        <time>2019-06-03T08:48:44Z</time>
      </trkpt>
      <trkpt lat="42.13643" lon="-8.62388">
        <ele>28.02</ele>
        <time>2019-06-03T08:48:56Z</time>
      </trkpt>
      <trkpt lat="42.13643" lon="-8.62387">
        <ele>28.02</ele>
        <time>2019-06-03T08:48:57Z</time>
      </trkpt>
      <trkpt lat="42.13644" lon="-8.62379">
        <ele>28.02</ele>
        <time>2019-06-03T08:49:08Z</time>
      </trkpt>
      <trkpt lat="42.13649" lon="-8.62377">
        <ele>28.5</ele>
        <time>2019-06-03T08:49:13Z</time>
      </trkpt>
      <trkpt lat="42.13658" lon="-8.62367">
        <ele>28.5</ele>
        <time>2019-06-03T08:49:25Z</time>
      </trkpt>
      <trkpt lat="42.13671" lon="-8.6235">
        <ele>28.02</ele>
        <time>2019-06-03T08:49:39Z</time>
      </trkpt>
      <trkpt lat="42.13683" lon="-8.62346">
        <ele>29.46</ele>
        <time>2019-06-03T08:49:51Z</time>
      </trkpt>
      <trkpt lat="42.13685" lon="-8.62346">
        <ele>29.94</ele>
        <time>2019-06-03T08:49:53Z</time>
      </trkpt>
      <trkpt lat="42.1369" lon="-8.62347">
        <ele>31.38</ele>
        <time>2019-06-03T08:50:02Z</time>
      </trkpt>
      <trkpt lat="42.13696" lon="-8.62347">
        <ele>31.86</ele>
        <time>2019-06-03T08:50:10Z</time>
      </trkpt>
      <trkpt lat="42.13698" lon="-8.62347">
        <ele>32.34</ele>
        <time>2019-06-03T08:50:11Z</time>
      </trkpt>
      <trkpt lat="42.13699" lon="-8.62345">
        <ele>32.82</ele>
        <time>2019-06-03T08:50:22Z</time>
      </trkpt>
      <trkpt lat="42.13689" lon="-8.62341">
        <ele>33.78</ele>
        <time>2019-06-03T08:50:36Z</time>
      </trkpt>
      <trkpt lat="42.13681" lon="-8.62338">
        <ele>35.71</ele>
        <time>2019-06-03T08:50:50Z</time>
      </trkpt>
      <trkpt lat="42.13681" lon="-8.62329">
        <ele>35.23</ele>
        <time>2019-06-03T08:51:03Z</time>
      </trkpt>
      <trkpt lat="42.13675" lon="-8.62321">
        <ele>34.26</ele>
        <time>2019-06-03T08:51:14Z</time>
      </trkpt>
      <trkpt lat="42.13656" lon="-8.62321">
        <ele>31.38</ele>
        <time>2019-06-03T08:51:29Z</time>
      </trkpt>
      <trkpt lat="42.13655" lon="-8.62319">
        <ele>32.34</ele>
        <time>2019-06-03T08:51:36Z</time>
      </trkpt>
      <trkpt lat="42.13665" lon="-8.62318">
        <ele>30.42</ele>
        <time>2019-06-03T08:51:48Z</time>
      </trkpt>
      <trkpt lat="42.13683" lon="-8.62316">
        <ele>28.5</ele>
        <time>2019-06-03T08:52:02Z</time>
      </trkpt>
      <trkpt lat="42.13695" lon="-8.6231">
        <ele>28.5</ele>
        <time>2019-06-03T08:52:17Z</time>
      </trkpt>
      <trkpt lat="42.13716" lon="-8.62305">
        <ele>28.02</ele>
        <time>2019-06-03T08:52:33Z</time>
      </trkpt>
      <trkpt lat="42.13724" lon="-8.62303">
        <ele>28.02</ele>
        <time>2019-06-03T08:52:39Z</time>
      </trkpt>
      <trkpt lat="42.13728" lon="-8.62302">
        <ele>28.02</ele>
        <time>2019-06-03T08:52:42Z</time>
      </trkpt>
      <trkpt lat="42.13745" lon="-8.62302">
        <ele>27.53</ele>
        <time>2019-06-03T08:52:58Z</time>
      </trkpt>
      <trkpt lat="42.13754" lon="-8.62302">
        <ele>27.53</ele>
        <time>2019-06-03T08:53:12Z</time>
      </trkpt>
      <trkpt lat="42.13755" lon="-8.62302">
        <ele>27.53</ele>
        <time>2019-06-03T08:53:35Z</time>
      </trkpt>
      <trkpt lat="42.13755" lon="-8.62301">
        <ele>27.53</ele>
        <time>2019-06-03T08:53:51Z</time>
      </trkpt>
      <trkpt lat="42.13763" lon="-8.623">
        <ele>27.05</ele>
        <time>2019-06-03T08:54:02Z</time>
      </trkpt>
      <trkpt lat="42.13775" lon="-8.62301">
        <ele>27.05</ele>
        <time>2019-06-03T08:54:14Z</time>
      </trkpt>
      <trkpt lat="42.13791" lon="-8.62298">
        <ele>27.05</ele>
        <time>2019-06-03T08:54:27Z</time>
      </trkpt>
      <trkpt lat="42.13812" lon="-8.62298">
        <ele>26.57</ele>
        <time>2019-06-03T08:54:44Z</time>
      </trkpt>
      <trkpt lat="42.13834" lon="-8.62296">
        <ele>26.57</ele>
        <time>2019-06-03T08:55:01Z</time>
      </trkpt>
      <trkpt lat="42.13856" lon="-8.62294">
        <ele>26.09</ele>
        <time>2019-06-03T08:55:18Z</time>
      </trkpt>
      <trkpt lat="42.13872" lon="-8.62293">
        <ele>26.09</ele>
        <time>2019-06-03T08:55:31Z</time>
      </trkpt>
      <trkpt lat="42.13891" lon="-8.62292">
        <ele>26.09</ele>
        <time>2019-06-03T08:55:46Z</time>
      </trkpt>
      <trkpt lat="42.13912" lon="-8.62289">
        <ele>26.09</ele>
        <time>2019-06-03T08:56:04Z</time>
      </trkpt>
      <trkpt lat="42.13914" lon="-8.62288">
        <ele>25.61</ele>
        <time>2019-06-03T08:56:06Z</time>
      </trkpt>
      <trkpt lat="42.13931" lon="-8.62285">
        <ele>25.61</ele>
        <time>2019-06-03T08:56:21Z</time>
      </trkpt>
      <trkpt lat="42.13949" lon="-8.62282">
        <ele>25.61</ele>
        <time>2019-06-03T08:56:35Z</time>
      </trkpt>
      <trkpt lat="42.13954" lon="-8.62283">
        <ele>25.61</ele>
        <time>2019-06-03T08:56:39Z</time>
      </trkpt>
      <trkpt lat="42.13958" lon="-8.62286">
        <ele>25.61</ele>
        <time>2019-06-03T08:56:43Z</time>
      </trkpt>
      <trkpt lat="42.1398" lon="-8.62286">
        <ele>25.61</ele>
        <time>2019-06-03T08:57:00Z</time>
      </trkpt>
      <trkpt lat="42.13988" lon="-8.62285">
        <ele>25.61</ele>
        <time>2019-06-03T08:57:12Z</time>
      </trkpt>
      <trkpt lat="42.14005" lon="-8.62284">
        <ele>25.61</ele>
        <time>2019-06-03T08:57:26Z</time>
      </trkpt>
      <trkpt lat="42.14025" lon="-8.62281">
        <ele>25.61</ele>
        <time>2019-06-03T08:57:41Z</time>
      </trkpt>
      <trkpt lat="42.14026" lon="-8.62281">
        <ele>25.13</ele>
        <time>2019-06-03T08:57:42Z</time>
      </trkpt>
      <trkpt lat="42.14043" lon="-8.6228">
        <ele>25.61</ele>
        <time>2019-06-03T08:57:58Z</time>
      </trkpt>
      <trkpt lat="42.14058" lon="-8.6228">
        <ele>25.61</ele>
        <time>2019-06-03T08:58:13Z</time>
      </trkpt>
      <trkpt lat="42.14074" lon="-8.62278">
        <ele>25.61</ele>
        <time>2019-06-03T08:58:26Z</time>
      </trkpt>
      <trkpt lat="42.1409" lon="-8.62279">
        <ele>25.61</ele>
        <time>2019-06-03T08:58:40Z</time>
      </trkpt>
      <trkpt lat="42.14096" lon="-8.62278">
        <ele>25.61</ele>
        <time>2019-06-03T08:58:45Z</time>
      </trkpt>
      <trkpt lat="42.14105" lon="-8.62277">
        <ele>25.13</ele>
        <time>2019-06-03T08:58:53Z</time>
      </trkpt>
      <trkpt lat="42.14125" lon="-8.62275">
        <ele>25.13</ele>
        <time>2019-06-03T08:59:08Z</time>
      </trkpt>
      <trkpt lat="42.14144" lon="-8.62271">
        <ele>25.61</ele>
        <time>2019-06-03T08:59:21Z</time>
      </trkpt>
      <trkpt lat="42.14158" lon="-8.62273">
        <ele>25.13</ele>
        <time>2019-06-03T08:59:35Z</time>
      </trkpt>
      <trkpt lat="42.14167" lon="-8.62272">
        <ele>25.13</ele>
        <time>2019-06-03T08:59:42Z</time>
      </trkpt>
      <trkpt lat="42.14185" lon="-8.62267">
        <ele>25.61</ele>
        <time>2019-06-03T08:59:55Z</time>
      </trkpt>
      <trkpt lat="42.14204" lon="-8.62266">
        <ele>25.13</ele>
        <time>2019-06-03T09:00:09Z</time>
      </trkpt>
      <trkpt lat="42.14214" lon="-8.62265">
        <ele>25.13</ele>
        <time>2019-06-03T09:00:21Z</time>
      </trkpt>
      <trkpt lat="42.14229" lon="-8.62263">
        <ele>25.61</ele>
        <time>2019-06-03T09:00:34Z</time>
      </trkpt>
      <trkpt lat="42.14246" lon="-8.62262">
        <ele>25.13</ele>
        <time>2019-06-03T09:00:49Z</time>
      </trkpt>
      <trkpt lat="42.14259" lon="-8.62259">
        <ele>25.13</ele>
        <time>2019-06-03T09:01:00Z</time>
      </trkpt>
      <trkpt lat="42.14268" lon="-8.62257">
        <ele>25.13</ele>
        <time>2019-06-03T09:01:05Z</time>
      </trkpt>
      <trkpt lat="42.14291" lon="-8.62257">
        <ele>25.13</ele>
        <time>2019-06-03T09:01:21Z</time>
      </trkpt>
      <trkpt lat="42.14305" lon="-8.62261">
        <ele>25.61</ele>
        <time>2019-06-03T09:01:35Z</time>
      </trkpt>
      <trkpt lat="42.14313" lon="-8.62261">
        <ele>25.13</ele>
        <time>2019-06-03T09:01:43Z</time>
      </trkpt>
      <trkpt lat="42.14316" lon="-8.62261">
        <ele>25.61</ele>
        <time>2019-06-03T09:01:46Z</time>
      </trkpt>
      <trkpt lat="42.1433" lon="-8.62259">
        <ele>24.65</ele>
        <time>2019-06-03T09:02:01Z</time>
      </trkpt>
      <trkpt lat="42.14334" lon="-8.62257">
        <ele>24.65</ele>
        <time>2019-06-03T09:02:14Z</time>
      </trkpt>
      <trkpt lat="42.14355" lon="-8.62254">
        <ele>25.61</ele>
        <time>2019-06-03T09:02:27Z</time>
      </trkpt>
      <trkpt lat="42.14368" lon="-8.62255">
        <ele>25.61</ele>
        <time>2019-06-03T09:02:40Z</time>
      </trkpt>
      <trkpt lat="42.14378" lon="-8.62256">
        <ele>26.09</ele>
        <time>2019-06-03T09:02:52Z</time>
      </trkpt>
      <trkpt lat="42.14394" lon="-8.62255">
        <ele>26.09</ele>
        <time>2019-06-03T09:03:05Z</time>
      </trkpt>
      <trkpt lat="42.14413" lon="-8.62252">
        <ele>26.57</ele>
        <time>2019-06-03T09:03:18Z</time>
      </trkpt>
      <trkpt lat="42.14415" lon="-8.62251">
        <ele>26.57</ele>
        <time>2019-06-03T09:03:20Z</time>
      </trkpt>
      <trkpt lat="42.14437" lon="-8.62249">
        <ele>27.05</ele>
        <time>2019-06-03T09:03:35Z</time>
      </trkpt>
      <trkpt lat="42.14441" lon="-8.6225">
        <ele>26.57</ele>
        <time>2019-06-03T09:03:38Z</time>
      </trkpt>
      <trkpt lat="42.14463" lon="-8.62248">
        <ele>26.57</ele>
        <time>2019-06-03T09:03:55Z</time>
      </trkpt>
      <trkpt lat="42.1448" lon="-8.62247">
        <ele>27.05</ele>
        <time>2019-06-03T09:04:09Z</time>
      </trkpt>
      <trkpt lat="42.14501" lon="-8.62247">
        <ele>27.53</ele>
        <time>2019-06-03T09:04:25Z</time>
      </trkpt>
      <trkpt lat="42.14519" lon="-8.62245">
        <ele>28.5</ele>
        <time>2019-06-03T09:04:40Z</time>
      </trkpt>
      <trkpt lat="42.14539" lon="-8.62244">
        <ele>28.98</ele>
        <time>2019-06-03T09:04:57Z</time>
      </trkpt>
      <trkpt lat="42.1456" lon="-8.62243">
        <ele>29.46</ele>
        <time>2019-06-03T09:05:13Z</time>
      </trkpt>
      <trkpt lat="42.14569" lon="-8.62244">
        <ele>29.46</ele>
        <time>2019-06-03T09:05:27Z</time>
      </trkpt>
      <trkpt lat="42.14569" lon="-8.62242">
        <ele>29.46</ele>
        <time>2019-06-03T09:05:29Z</time>
      </trkpt>
      <trkpt lat="42.14584" lon="-8.62243">
        <ele>30.42</ele>
        <time>2019-06-03T09:05:43Z</time>
      </trkpt>
      <trkpt lat="42.14588" lon="-8.62247">
        <ele>30.9</ele>
        <time>2019-06-03T09:05:48Z</time>
      </trkpt>
      <trkpt lat="42.14596" lon="-8.6225">
        <ele>31.38</ele>
        <time>2019-06-03T09:06:01Z</time>
      </trkpt>
      <trkpt lat="42.14606" lon="-8.62247">
        <ele>30.9</ele>
        <time>2019-06-03T09:06:09Z</time>
      </trkpt>
      <trkpt lat="42.14611" lon="-8.62244">
        <ele>30.42</ele>
        <time>2019-06-03T09:06:14Z</time>
      </trkpt>
      <trkpt lat="42.14618" lon="-8.62249">
        <ele>30.9</ele>
        <time>2019-06-03T09:06:28Z</time>
      </trkpt>
      <trkpt lat="42.14628" lon="-8.62245">
        <ele>30.9</ele>
        <time>2019-06-03T09:06:39Z</time>
      </trkpt>
      <trkpt lat="42.14643" lon="-8.62246">
        <ele>30.9</ele>
        <time>2019-06-03T09:06:51Z</time>
      </trkpt>
      <trkpt lat="42.14644" lon="-8.62246">
        <ele>30.9</ele>
        <time>2019-06-03T09:06:52Z</time>
      </trkpt>
      <trkpt lat="42.14665" lon="-8.62242">
        <ele>30.9</ele>
        <time>2019-06-03T09:07:08Z</time>
      </trkpt>
      <trkpt lat="42.14682" lon="-8.6224">
        <ele>29.94</ele>
        <time>2019-06-03T09:07:21Z</time>
      </trkpt>
      <trkpt lat="42.14698" lon="-8.62239">
        <ele>29.94</ele>
        <time>2019-06-03T09:07:35Z</time>
      </trkpt>
      <trkpt lat="42.14714" lon="-8.6224">
        <ele>28.98</ele>
        <time>2019-06-03T09:07:48Z</time>
      </trkpt>
      <trkpt lat="42.14733" lon="-8.62238">
        <ele>29.94</ele>
        <time>2019-06-03T09:08:02Z</time>
      </trkpt>
      <trkpt lat="42.1475" lon="-8.62237">
        <ele>29.46</ele>
        <time>2019-06-03T09:08:17Z</time>
      </trkpt>
      <trkpt lat="42.14771" lon="-8.62236">
        <ele>29.46</ele>
        <time>2019-06-03T09:08:34Z</time>
      </trkpt>
      <trkpt lat="42.14791" lon="-8.62234">
        <ele>28.98</ele>
        <time>2019-06-03T09:08:51Z</time>
      </trkpt>
      <trkpt lat="42.14806" lon="-8.62233">
        <ele>29.94</ele>
        <time>2019-06-03T09:09:06Z</time>
      </trkpt>
      <trkpt lat="42.14821" lon="-8.62232">
        <ele>29.94</ele>
        <time>2019-06-03T09:09:22Z</time>
      </trkpt>
      <trkpt lat="42.14824" lon="-8.62231">
        <ele>30.42</ele>
        <time>2019-06-03T09:09:38Z</time>
      </trkpt>
      <trkpt lat="42.14826" lon="-8.62229">
        <ele>29.94</ele>
        <time>2019-06-03T09:09:54Z</time>
      </trkpt>
      <trkpt lat="42.14825" lon="-8.62229">
        <ele>29.46</ele>
        <time>2019-06-03T09:10:12Z</time>
      </trkpt>
      <trkpt lat="42.14828" lon="-8.62232">
        <ele>29.46</ele>
        <time>2019-06-03T09:10:42Z</time>
      </trkpt>
      <trkpt lat="42.14829" lon="-8.62234">
        <ele>29.94</ele>
        <time>2019-06-03T09:11:10Z</time>
      </trkpt>
      <trkpt lat="42.1483" lon="-8.6223">
        <ele>29.94</ele>
        <time>2019-06-03T09:11:44Z</time>
      </trkpt>
      <trkpt lat="42.14827" lon="-8.62226">
        <ele>29.94</ele>
        <time>2019-06-03T09:12:14Z</time>
      </trkpt>
      <trkpt lat="42.14823" lon="-8.62217">
        <ele>30.42</ele>
        <time>2019-06-03T09:12:48Z</time>
      </trkpt>
      <trkpt lat="42.14825" lon="-8.62219">
        <ele>31.38</ele>
        <time>2019-06-03T09:13:15Z</time>
      </trkpt>
      <trkpt lat="42.14822" lon="-8.6222">
        <ele>30.9</ele>
        <time>2019-06-03T09:13:48Z</time>
      </trkpt>
      <trkpt lat="42.14822" lon="-8.6222">
        <ele>30.9</ele>
        <time>2019-06-03T09:14:20Z</time>
      </trkpt>
      <trkpt lat="42.14821" lon="-8.62214">
        <ele>30.42</ele>
        <time>2019-06-03T09:15:01Z</time>
      </trkpt>
      <trkpt lat="42.14823" lon="-8.62215">
        <ele>31.38</ele>
        <time>2019-06-03T09:15:41Z</time>
      </trkpt>
      <trkpt lat="42.14822" lon="-8.62215">
        <ele>31.86</ele>
        <time>2019-06-03T09:16:22Z</time>
      </trkpt>
      <trkpt lat="42.14823" lon="-8.62228">
        <ele>31.86</ele>
        <time>2019-06-03T09:16:57Z</time>
      </trkpt>
      <trkpt lat="42.14822" lon="-8.62224">
        <ele>32.34</ele>
        <time>2019-06-03T09:17:30Z</time>
      </trkpt>
      <trkpt lat="42.14822" lon="-8.62226">
        <ele>32.34</ele>
        <time>2019-06-03T09:18:02Z</time>
      </trkpt>
      <trkpt lat="42.14824" lon="-8.62226">
        <ele>32.34</ele>
        <time>2019-06-03T09:18:36Z</time>
      </trkpt>
      <trkpt lat="42.14823" lon="-8.62226">
        <ele>32.34</ele>
        <time>2019-06-03T09:19:07Z</time>
      </trkpt>
      <trkpt lat="42.14823" lon="-8.62226">
        <ele>32.82</ele>
        <time>2019-06-03T09:19:46Z</time>
      </trkpt>
      <trkpt lat="42.1482" lon="-8.62222">
        <ele>32.82</ele>
        <time>2019-06-03T09:20:25Z</time>
      </trkpt>
      <trkpt lat="42.14823" lon="-8.62225">
        <ele>32.82</ele>
        <time>2019-06-03T09:21:06Z</time>
      </trkpt>
      <trkpt lat="42.14824" lon="-8.62226">
        <ele>33.3</ele>
        <time>2019-06-03T09:21:45Z</time>
      </trkpt>
      <trkpt lat="42.14824" lon="-8.62219">
        <ele>33.78</ele>
        <time>2019-06-03T09:22:15Z</time>
      </trkpt>
      <trkpt lat="42.14823" lon="-8.62217">
        <ele>34.74</ele>
        <time>2019-06-03T09:22:31Z</time>
      </trkpt>
      <trkpt lat="42.14826" lon="-8.62215">
        <ele>33.78</ele>
        <time>2019-06-03T09:22:42Z</time>
      </trkpt>
      <trkpt lat="42.14845" lon="-8.6223">
        <ele>34.26</ele>
        <time>2019-06-03T09:22:57Z</time>
      </trkpt>
      <trkpt lat="42.14862" lon="-8.62226">
        <ele>34.26</ele>
        <time>2019-06-03T09:23:13Z</time>
      </trkpt>
      <trkpt lat="42.14879" lon="-8.62222">
        <ele>34.74</ele>
        <time>2019-06-03T09:23:27Z</time>
      </trkpt>
      <trkpt lat="42.149" lon="-8.62219">
        <ele>35.23</ele>
        <time>2019-06-03T09:23:44Z</time>
      </trkpt>
      <trkpt lat="42.14918" lon="-8.62214">
        <ele>34.74</ele>
        <time>2019-06-03T09:23:58Z</time>
      </trkpt>
      <trkpt lat="42.14937" lon="-8.62209">
        <ele>34.26</ele>
        <time>2019-06-03T09:24:14Z</time>
      </trkpt>
      <trkpt lat="42.14957" lon="-8.62202">
        <ele>35.23</ele>
        <time>2019-06-03T09:24:30Z</time>
      </trkpt>
      <trkpt lat="42.14958" lon="-8.62202">
        <ele>35.23</ele>
        <time>2019-06-03T09:24:32Z</time>
      </trkpt>
      <trkpt lat="42.14978" lon="-8.62197">
        <ele>35.23</ele>
        <time>2019-06-03T09:24:49Z</time>
      </trkpt>
      <trkpt lat="42.14991" lon="-8.62193">
        <ele>35.71</ele>
        <time>2019-06-03T09:24:59Z</time>
      </trkpt>
      <trkpt lat="42.14998" lon="-8.62191">
        <ele>35.23</ele>
        <time>2019-06-03T09:25:04Z</time>
      </trkpt>
      <trkpt lat="42.15018" lon="-8.62183">
        <ele>35.23</ele>
        <time>2019-06-03T09:25:21Z</time>
      </trkpt>
      <trkpt lat="42.15035" lon="-8.62176">
        <ele>35.23</ele>
        <time>2019-06-03T09:25:37Z</time>
      </trkpt>
      <trkpt lat="42.15054" lon="-8.62169">
        <ele>34.74</ele>
        <time>2019-06-03T09:25:53Z</time>
      </trkpt>
      <trkpt lat="42.15074" lon="-8.62163">
        <ele>34.74</ele>
        <time>2019-06-03T09:26:09Z</time>
      </trkpt>
      <trkpt lat="42.15081" lon="-8.62161">
        <ele>34.74</ele>
        <time>2019-06-03T09:26:16Z</time>
      </trkpt>
      <trkpt lat="42.15097" lon="-8.62158">
        <ele>34.26</ele>
        <time>2019-06-03T09:26:30Z</time>
      </trkpt>
      <trkpt lat="42.15116" lon="-8.62151">
        <ele>34.26</ele>
        <time>2019-06-03T09:26:45Z</time>
      </trkpt>
      <trkpt lat="42.15134" lon="-8.62145">
        <ele>34.26</ele>
        <time>2019-06-03T09:27:00Z</time>
      </trkpt>
      <trkpt lat="42.1515" lon="-8.62141">
        <ele>34.74</ele>
        <time>2019-06-03T09:27:13Z</time>
      </trkpt>
      <trkpt lat="42.1517" lon="-8.62134">
        <ele>34.26</ele>
        <time>2019-06-03T09:27:29Z</time>
      </trkpt>
      <trkpt lat="42.1518" lon="-8.62131">
        <ele>34.74</ele>
        <time>2019-06-03T09:27:37Z</time>
      </trkpt>
      <trkpt lat="42.15195" lon="-8.62125">
        <ele>34.26</ele>
        <time>2019-06-03T09:27:50Z</time>
      </trkpt>
      <trkpt lat="42.15198" lon="-8.62125">
        <ele>34.26</ele>
        <time>2019-06-03T09:27:53Z</time>
      </trkpt>
      <trkpt lat="42.15212" lon="-8.6212">
        <ele>33.78</ele>
        <time>2019-06-03T09:28:07Z</time>
      </trkpt>
      <trkpt lat="42.15231" lon="-8.62114">
        <ele>33.78</ele>
        <time>2019-06-03T09:28:22Z</time>
      </trkpt>
      <trkpt lat="42.15233" lon="-8.62111">
        <ele>34.26</ele>
        <time>2019-06-03T09:28:24Z</time>
      </trkpt>
      <trkpt lat="42.15246" lon="-8.62105">
        <ele>33.78</ele>
        <time>2019-06-03T09:28:37Z</time>
      </trkpt>
      <trkpt lat="42.15247" lon="-8.62105">
        <ele>33.3</ele>
        <time>2019-06-03T09:28:38Z</time>
      </trkpt>
      <trkpt lat="42.15266" lon="-8.62099">
        <ele>33.3</ele>
        <time>2019-06-03T09:28:54Z</time>
      </trkpt>
      <trkpt lat="42.15273" lon="-8.621">
        <ele>32.82</ele>
        <time>2019-06-03T09:28:59Z</time>
      </trkpt>
      <trkpt lat="42.1528" lon="-8.62097">
        <ele>33.3</ele>
        <time>2019-06-03T09:29:05Z</time>
      </trkpt>
      <trkpt lat="42.15302" lon="-8.62097">
        <ele>32.82</ele>
        <time>2019-06-03T09:29:20Z</time>
      </trkpt>
      <trkpt lat="42.1532" lon="-8.62092">
        <ele>32.34</ele>
        <time>2019-06-03T09:29:34Z</time>
      </trkpt>
      <trkpt lat="42.15331" lon="-8.62088">
        <ele>32.34</ele>
        <time>2019-06-03T09:29:47Z</time>
      </trkpt>
      <trkpt lat="42.15344" lon="-8.6208">
        <ele>32.34</ele>
        <time>2019-06-03T09:30:01Z</time>
      </trkpt>
      <trkpt lat="42.15358" lon="-8.62075">
        <ele>32.34</ele>
        <time>2019-06-03T09:30:14Z</time>
      </trkpt>
      <trkpt lat="42.15377" lon="-8.62068">
        <ele>31.86</ele>
        <time>2019-06-03T09:30:31Z</time>
      </trkpt>
      <trkpt lat="42.15393" lon="-8.6206">
        <ele>31.86</ele>
        <time>2019-06-03T09:30:47Z</time>
      </trkpt>
      <trkpt lat="42.15411" lon="-8.62056">
        <ele>31.86</ele>
        <time>2019-06-03T09:31:02Z</time>
      </trkpt>
      <trkpt lat="42.15433" lon="-8.62063">
        <ele>32.82</ele>
        <time>2019-06-03T09:31:19Z</time>
      </trkpt>
      <trkpt lat="42.1545" lon="-8.62073">
        <ele>32.82</ele>
        <time>2019-06-03T09:31:33Z</time>
      </trkpt>
      <trkpt lat="42.15466" lon="-8.62084">
        <ele>32.82</ele>
        <time>2019-06-03T09:31:48Z</time>
      </trkpt>
      <trkpt lat="42.1548" lon="-8.62094">
        <ele>31.86</ele>
        <time>2019-06-03T09:32:02Z</time>
      </trkpt>
      <trkpt lat="42.15486" lon="-8.62097">
        <ele>31.86</ele>
        <time>2019-06-03T09:32:08Z</time>
      </trkpt>
      <trkpt lat="42.1549" lon="-8.62098">
        <ele>32.34</ele>
        <time>2019-06-03T09:32:13Z</time>
      </trkpt>
      <trkpt lat="42.155" lon="-8.62099">
        <ele>31.86</ele>
        <time>2019-06-03T09:32:22Z</time>
      </trkpt>
      <trkpt lat="42.15512" lon="-8.62094">
        <ele>32.34</ele>
        <time>2019-06-03T09:32:34Z</time>
      </trkpt>
      <trkpt lat="42.15517" lon="-8.62095">
        <ele>32.82</ele>
        <time>2019-06-03T09:32:42Z</time>
      </trkpt>
      <trkpt lat="42.15534" lon="-8.62097">
        <ele>32.82</ele>
        <time>2019-06-03T09:32:56Z</time>
      </trkpt>
      <trkpt lat="42.15536" lon="-8.62097">
        <ele>32.82</ele>
        <time>2019-06-03T09:32:57Z</time>
      </trkpt>
      <trkpt lat="42.15541" lon="-8.62098">
        <ele>32.82</ele>
        <time>2019-06-03T09:33:02Z</time>
      </trkpt>
      <trkpt lat="42.15554" lon="-8.62103">
        <ele>33.3</ele>
        <time>2019-06-03T09:33:14Z</time>
      </trkpt>
      <trkpt lat="42.15566" lon="-8.62103">
        <ele>32.82</ele>
        <time>2019-06-03T09:33:22Z</time>
      </trkpt>
      <trkpt lat="42.15579" lon="-8.62098">
        <ele>32.34</ele>
        <time>2019-06-03T09:33:32Z</time>
      </trkpt>
      <trkpt lat="42.15582" lon="-8.62098">
        <ele>32.34</ele>
        <time>2019-06-03T09:33:36Z</time>
      </trkpt>
      <trkpt lat="42.15585" lon="-8.62097">
        <ele>32.34</ele>
        <time>2019-06-03T09:33:39Z</time>
      </trkpt>
      <trkpt lat="42.15596" lon="-8.62089">
        <ele>31.86</ele>
        <time>2019-06-03T09:33:48Z</time>
      </trkpt>
      <trkpt lat="42.15605" lon="-8.62083">
        <ele>31.86</ele>
        <time>2019-06-03T09:33:59Z</time>
      </trkpt>
      <trkpt lat="42.15613" lon="-8.62076">
        <ele>31.38</ele>
        <time>2019-06-03T09:34:08Z</time>
      </trkpt>
      <trkpt lat="42.15624" lon="-8.6207">
        <ele>31.86</ele>
        <time>2019-06-03T09:34:19Z</time>
      </trkpt>
      <trkpt lat="42.15631" lon="-8.62066">
        <ele>31.86</ele>
        <time>2019-06-03T09:34:25Z</time>
      </trkpt>
      <trkpt lat="42.15654" lon="-8.62062">
        <ele>31.86</ele>
        <time>2019-06-03T09:34:38Z</time>
      </trkpt>
      <trkpt lat="42.15655" lon="-8.62061">
        <ele>31.38</ele>
        <time>2019-06-03T09:34:40Z</time>
      </trkpt>
      <trkpt lat="42.15667" lon="-8.62054">
        <ele>31.86</ele>
        <time>2019-06-03T09:34:51Z</time>
      </trkpt>
      <trkpt lat="42.15678" lon="-8.62046">
        <ele>32.82</ele>
        <time>2019-06-03T09:35:02Z</time>
      </trkpt>
      <trkpt lat="42.15688" lon="-8.6204">
        <ele>32.82</ele>
        <time>2019-06-03T09:35:12Z</time>
      </trkpt>
      <trkpt lat="42.15699" lon="-8.62038">
        <ele>32.82</ele>
        <time>2019-06-03T09:35:23Z</time>
      </trkpt>
      <trkpt lat="42.15707" lon="-8.62027">
        <ele>33.3</ele>
        <time>2019-06-03T09:35:31Z</time>
      </trkpt>
      <trkpt lat="42.15719" lon="-8.62017">
        <ele>33.3</ele>
        <time>2019-06-03T09:35:41Z</time>
      </trkpt>
      <trkpt lat="42.15723" lon="-8.62016">
        <ele>33.3</ele>
        <time>2019-06-03T09:35:45Z</time>
      </trkpt>
      <trkpt lat="42.15726" lon="-8.62011">
        <ele>33.78</ele>
        <time>2019-06-03T09:35:57Z</time>
      </trkpt>
      <trkpt lat="42.15732" lon="-8.62009">
        <ele>33.78</ele>
        <time>2019-06-03T09:36:07Z</time>
      </trkpt>
      <trkpt lat="42.15732" lon="-8.62007">
        <ele>33.78</ele>
        <time>2019-06-03T09:36:09Z</time>
      </trkpt>
      <trkpt lat="42.15738" lon="-8.62003">
        <ele>34.26</ele>
        <time>2019-06-03T09:36:18Z</time>
      </trkpt>
      <trkpt lat="42.1574" lon="-8.62004">
        <ele>34.74</ele>
        <time>2019-06-03T09:36:20Z</time>
      </trkpt>
      <trkpt lat="42.15751" lon="-8.62002">
        <ele>34.26</ele>
        <time>2019-06-03T09:36:32Z</time>
      </trkpt>
      <trkpt lat="42.15766" lon="-8.62004">
        <ele>34.74</ele>
        <time>2019-06-03T09:36:44Z</time>
      </trkpt>
      <trkpt lat="42.15782" lon="-8.62007">
        <ele>34.74</ele>
        <time>2019-06-03T09:36:56Z</time>
      </trkpt>
      <trkpt lat="42.158" lon="-8.62005">
        <ele>35.23</ele>
        <time>2019-06-03T09:37:10Z</time>
      </trkpt>
      <trkpt lat="42.15807" lon="-8.62013">
        <ele>36.19</ele>
        <time>2019-06-03T09:37:18Z</time>
      </trkpt>
      <trkpt lat="42.15817" lon="-8.62018">
        <ele>36.19</ele>
        <time>2019-06-03T09:37:27Z</time>
      </trkpt>
      <trkpt lat="42.15819" lon="-8.6202">
        <ele>36.67</ele>
        <time>2019-06-03T09:37:29Z</time>
      </trkpt>
      <trkpt lat="42.15831" lon="-8.62011">
        <ele>37.63</ele>
        <time>2019-06-03T09:37:43Z</time>
      </trkpt>
      <trkpt lat="42.15845" lon="-8.62014">
        <ele>38.11</ele>
        <time>2019-06-03T09:37:59Z</time>
      </trkpt>
      <trkpt lat="42.15858" lon="-8.62015">
        <ele>40.03</ele>
        <time>2019-06-03T09:38:13Z</time>
      </trkpt>
      <trkpt lat="42.15872" lon="-8.6202">
        <ele>40.99</ele>
        <time>2019-06-03T09:38:25Z</time>
      </trkpt>
      <trkpt lat="42.15884" lon="-8.6202">
        <ele>40.99</ele>
        <time>2019-06-03T09:38:39Z</time>
      </trkpt>
      <trkpt lat="42.15893" lon="-8.62016">
        <ele>41.47</ele>
        <time>2019-06-03T09:38:52Z</time>
      </trkpt>
      <trkpt lat="42.15913" lon="-8.62024">
        <ele>40.99</ele>
        <time>2019-06-03T09:39:05Z</time>
      </trkpt>
      <trkpt lat="42.15923" lon="-8.62039">
        <ele>39.55</ele>
        <time>2019-06-03T09:39:18Z</time>
      </trkpt>
      <trkpt lat="42.15928" lon="-8.62046">
        <ele>39.07</ele>
        <time>2019-06-03T09:39:23Z</time>
      </trkpt>
      <trkpt lat="42.1594" lon="-8.62057">
        <ele>39.07</ele>
        <time>2019-06-03T09:39:37Z</time>
      </trkpt>
      <trkpt lat="42.15953" lon="-8.62067">
        <ele>38.11</ele>
        <time>2019-06-03T09:39:50Z</time>
      </trkpt>
      <trkpt lat="42.15953" lon="-8.62068">
        <ele>38.11</ele>
        <time>2019-06-03T09:39:51Z</time>
      </trkpt>
      <trkpt lat="42.15955" lon="-8.62083">
        <ele>36.19</ele>
        <time>2019-06-03T09:40:02Z</time>
      </trkpt>
      <trkpt lat="42.15959" lon="-8.62096">
        <ele>35.23</ele>
        <time>2019-06-03T09:40:14Z</time>
      </trkpt>
      <trkpt lat="42.15963" lon="-8.62101">
        <ele>35.23</ele>
        <time>2019-06-03T09:40:22Z</time>
      </trkpt>
      <trkpt lat="42.15971" lon="-8.62104">
        <ele>35.23</ele>
        <time>2019-06-03T09:40:35Z</time>
      </trkpt>
      <trkpt lat="42.15983" lon="-8.62111">
        <ele>35.23</ele>
        <time>2019-06-03T09:40:50Z</time>
      </trkpt>
      <trkpt lat="42.15981" lon="-8.62112">
        <ele>35.23</ele>
        <time>2019-06-03T09:41:19Z</time>
      </trkpt>
      <trkpt lat="42.15986" lon="-8.62103">
        <ele>35.71</ele>
        <time>2019-06-03T09:41:36Z</time>
      </trkpt>
      <trkpt lat="42.15984" lon="-8.62101">
        <ele>35.23</ele>
        <time>2019-06-03T09:41:59Z</time>
      </trkpt>
      <trkpt lat="42.15997" lon="-8.62109">
        <ele>35.23</ele>
        <time>2019-06-03T09:42:17Z</time>
      </trkpt>
      <trkpt lat="42.16013" lon="-8.6211">
        <ele>36.19</ele>
        <time>2019-06-03T09:42:31Z</time>
      </trkpt>
      <trkpt lat="42.16022" lon="-8.62109">
        <ele>35.71</ele>
        <time>2019-06-03T09:42:43Z</time>
      </trkpt>
      <trkpt lat="42.16032" lon="-8.6211">
        <ele>35.71</ele>
        <time>2019-06-03T09:42:52Z</time>
      </trkpt>
      <trkpt lat="42.16054" lon="-8.621">
        <ele>35.71</ele>
        <time>2019-06-03T09:43:08Z</time>
      </trkpt>
      <trkpt lat="42.16061" lon="-8.62105">
        <ele>36.19</ele>
        <time>2019-06-03T09:43:22Z</time>
      </trkpt>
      <trkpt lat="42.16074" lon="-8.62107">
        <ele>36.67</ele>
        <time>2019-06-03T09:43:36Z</time>
      </trkpt>
      <trkpt lat="42.16092" lon="-8.62109">
        <ele>36.67</ele>
        <time>2019-06-03T09:43:51Z</time>
      </trkpt>
      <trkpt lat="42.1611" lon="-8.62109">
        <ele>36.67</ele>
        <time>2019-06-03T09:44:05Z</time>
      </trkpt>
      <trkpt lat="42.16126" lon="-8.62109">
        <ele>37.15</ele>
        <time>2019-06-03T09:44:24Z</time>
      </trkpt>
      <trkpt lat="42.16142" lon="-8.62109">
        <ele>37.63</ele>
        <time>2019-06-03T09:44:41Z</time>
      </trkpt>
      <trkpt lat="42.16161" lon="-8.62112">
        <ele>37.63</ele>
        <time>2019-06-03T09:45:00Z</time>
      </trkpt>
      <trkpt lat="42.16171" lon="-8.62117">
        <ele>38.59</ele>
        <time>2019-06-03T09:45:12Z</time>
      </trkpt>
      <trkpt lat="42.16182" lon="-8.62116">
        <ele>38.59</ele>
        <time>2019-06-03T09:45:27Z</time>
      </trkpt>
      <trkpt lat="42.16184" lon="-8.62116">
        <ele>38.11</ele>
        <time>2019-06-03T09:45:46Z</time>
      </trkpt>
      <trkpt lat="42.16189" lon="-8.62122">
        <ele>39.07</ele>
        <time>2019-06-03T09:45:59Z</time>
      </trkpt>
      <trkpt lat="42.16197" lon="-8.62126">
        <ele>39.07</ele>
        <time>2019-06-03T09:46:11Z</time>
      </trkpt>
      <trkpt lat="42.16208" lon="-8.62135">
        <ele>39.55</ele>
        <time>2019-06-03T09:46:24Z</time>
      </trkpt>
      <trkpt lat="42.16219" lon="-8.62141">
        <ele>40.03</ele>
        <time>2019-06-03T09:46:39Z</time>
      </trkpt>
      <trkpt lat="42.1623" lon="-8.62141">
        <ele>40.51</ele>
        <time>2019-06-03T09:46:54Z</time>
      </trkpt>
      <trkpt lat="42.16243" lon="-8.62133">
        <ele>40.99</ele>
        <time>2019-06-03T09:47:08Z</time>
      </trkpt>
      <trkpt lat="42.16249" lon="-8.62133">
        <ele>40.99</ele>
        <time>2019-06-03T09:47:19Z</time>
      </trkpt>
      <trkpt lat="42.16262" lon="-8.62143">
        <ele>40.99</ele>
        <time>2019-06-03T09:47:31Z</time>
      </trkpt>
      <trkpt lat="42.16273" lon="-8.62149">
        <ele>40.99</ele>
        <time>2019-06-03T09:47:47Z</time>
      </trkpt>
      <trkpt lat="42.16269" lon="-8.62151">
        <ele>40.99</ele>
        <time>2019-06-03T09:48:05Z</time>
      </trkpt>
      <trkpt lat="42.16276" lon="-8.62152">
        <ele>40.99</ele>
        <time>2019-06-03T09:48:24Z</time>
      </trkpt>
      <trkpt lat="42.16288" lon="-8.62148">
        <ele>41.47</ele>
        <time>2019-06-03T09:48:36Z</time>
      </trkpt>
      <trkpt lat="42.16293" lon="-8.62146">
        <ele>41.47</ele>
        <time>2019-06-03T09:48:48Z</time>
      </trkpt>
      <trkpt lat="42.16307" lon="-8.62149">
        <ele>41.95</ele>
        <time>2019-06-03T09:49:04Z</time>
      </trkpt>
      <trkpt lat="42.16328" lon="-8.62135">
        <ele>41.47</ele>
        <time>2019-06-03T09:49:18Z</time>
      </trkpt>
      <trkpt lat="42.16337" lon="-8.62131">
        <ele>42.44</ele>
        <time>2019-06-03T09:49:28Z</time>
      </trkpt>
      <trkpt lat="42.1634" lon="-8.62129">
        <ele>42.44</ele>
        <time>2019-06-03T09:49:31Z</time>
      </trkpt>
      <trkpt lat="42.16352" lon="-8.62127">
        <ele>42.44</ele>
        <time>2019-06-03T09:49:46Z</time>
      </trkpt>
      <trkpt lat="42.16356" lon="-8.62123">
        <ele>42.44</ele>
        <time>2019-06-03T09:50:01Z</time>
      </trkpt>
      <trkpt lat="42.16367" lon="-8.62117">
        <ele>42.92</ele>
        <time>2019-06-03T09:50:13Z</time>
      </trkpt>
      <trkpt lat="42.16376" lon="-8.62117">
        <ele>43.4</ele>
        <time>2019-06-03T09:50:25Z</time>
      </trkpt>
      <trkpt lat="42.16387" lon="-8.62112">
        <ele>43.4</ele>
        <time>2019-06-03T09:50:35Z</time>
      </trkpt>
      <trkpt lat="42.16404" lon="-8.62117">
        <ele>43.88</ele>
        <time>2019-06-03T09:50:50Z</time>
      </trkpt>
      <trkpt lat="42.16421" lon="-8.62123">
        <ele>43.4</ele>
        <time>2019-06-03T09:51:02Z</time>
      </trkpt>
      <trkpt lat="42.16426" lon="-8.62118">
        <ele>44.36</ele>
        <time>2019-06-03T09:51:08Z</time>
      </trkpt>
      <trkpt lat="42.16433" lon="-8.6211">
        <ele>44.36</ele>
        <time>2019-06-03T09:51:17Z</time>
      </trkpt>
      <trkpt lat="42.16448" lon="-8.62103">
        <ele>44.36</ele>
        <time>2019-06-03T09:51:29Z</time>
      </trkpt>
      <trkpt lat="42.16463" lon="-8.62089">
        <ele>44.84</ele>
        <time>2019-06-03T09:51:47Z</time>
      </trkpt>
      <trkpt lat="42.16462" lon="-8.62091">
        <ele>45.32</ele>
        <time>2019-06-03T09:52:04Z</time>
      </trkpt>
      <trkpt lat="42.1646" lon="-8.62088">
        <ele>43.4</ele>
        <time>2019-06-03T09:52:29Z</time>
      </trkpt>
      <trkpt lat="42.16455" lon="-8.62084">
        <ele>43.88</ele>
        <time>2019-06-03T09:52:53Z</time>
      </trkpt>
      <trkpt lat="42.16453" lon="-8.62075">
        <ele>43.4</ele>
        <time>2019-06-03T09:53:16Z</time>
      </trkpt>
      <trkpt lat="42.16458" lon="-8.62084">
        <ele>43.4</ele>
        <time>2019-06-03T09:53:44Z</time>
      </trkpt>
      <trkpt lat="42.16465" lon="-8.62087">
        <ele>42.92</ele>
        <time>2019-06-03T09:53:57Z</time>
      </trkpt>
      <trkpt lat="42.16478" lon="-8.62089">
        <ele>43.88</ele>
        <time>2019-06-03T09:54:24Z</time>
      </trkpt>
    </trkseg>
  </trk>
</gpx>